PWSweather.com
Personal Weather Stations
Station Observations
IW2DCW
Centro Citta', VimercateIT 20871

Centro Citta'VimercateIT 20871

Lat: 45.614405, Lon: 9.368358

Elevation: 610

Station Type: Davis Vantage Pro 2

Latest ConditionsUpdated 12:16:00 PM GMT+01:01 Wednesday, Jan 17, 2018
Currently Today's Max Today's Min Today's Average
Temperature 50.3°F10.2°C 50.6°F10.3°C 32.3°F0.2°C 36.3°F2.4°C
Dew Point 22.3°F-5.4°C 35.9°F2.2°C 22.3°F-5.4°C 33.6°F0.9°C
Winds 14.0 mph WNW22.5 kmh WNW 16.0 mph NW25.7 kmh NW - 5.1 mph 8.2 kmh
Wind Gusts 22.0 mph35.4 kmh 23.0 mph37.0 kmh - -
Humidity 33% 96% 33% 91%
Pressure 29.59 in1002.0 mb 29.59 in1002.0 mb 29.44 in997.0 mb -
Precipitation - 0.01 in0.3 mm - -
Hour Temp Dew Point Humidity Winds Wind Gusts Pressure Precip Precip Rate Daily Precip Total
12:16 PM 50.3°F10.2°C 22.3°F-5.4°C 33% 14.0 mph WNW22.5 kmh WNW 22.0 mph35.4 kmh 29.59 in1002.0 mb 0.00 in0.0 mm 0.00 in0.0 mm 0.01 in0.3 mm
12:15 PM 50.4°F10.2°C 22.4°F-5.3°C 33% 10.0 mph WNW16.1 kmh WNW 22.0 mph35.4 kmh 29.58 in1001.7 mb 0.00 in0.0 mm 0.00 in0.0 mm 0.01 in0.3 mm
12:14 PM 50.5°F10.3°C 22.5°F-5.3°C 33% 11.0 mph WNW17.7 kmh WNW 22.0 mph35.4 kmh 29.58 in1001.7 mb 0.00 in0.0 mm 0.00 in0.0 mm 0.01 in0.3 mm
12:13 PM 50.6°F10.3°C 22.6°F-5.2°C 33% 11.0 mph WNW17.7 kmh WNW 21.0 mph33.8 kmh 29.58 in1001.7 mb 0.00 in0.0 mm 0.00 in0.0 mm 0.01 in0.3 mm
12:12 PM 50.6°F10.3°C 22.7°F-5.2°C 33% 12.0 mph NW19.3 kmh NW 18.0 mph29.0 kmh 29.58 in1001.7 mb 0.00 in0.0 mm 0.00 in0.0 mm 0.01 in0.3 mm
12:11 PM 50.6°F10.3°C 23.3°F-4.8°C 34% 11.0 mph NW17.7 kmh NW 18.0 mph29.0 kmh 29.58 in1001.7 mb 0.00 in0.0 mm 0.00 in0.0 mm 0.01 in0.3 mm
12:10 PM 50.6°F10.3°C 23.3°F-4.8°C 34% 7.0 mph NW11.3 kmh NW 13.0 mph20.9 kmh 29.58 in1001.7 mb 0.00 in0.0 mm 0.00 in0.0 mm 0.01 in0.3 mm
12:09 PM 50.6°F10.3°C 22.8°F-5.1°C 33% 6.0 mph N9.7 kmh N 23.0 mph37.0 kmh 29.58 in1001.7 mb 0.00 in0.0 mm 0.00 in0.0 mm 0.01 in0.3 mm
12:08 PM 50.6°F10.3°C 23.2°F-4.9°C 34% 15.0 mph WNW24.1 kmh WNW 23.0 mph37.0 kmh 29.58 in1001.7 mb 0.00 in0.0 mm 0.00 in0.0 mm 0.01 in0.3 mm
12:07 PM 50.5°F10.3°C 23.3°F-4.8°C 34% 12.0 mph WNW19.3 kmh WNW 20.0 mph32.2 kmh 29.58 in1001.7 mb 0.00 in0.0 mm 0.00 in0.0 mm 0.01 in0.3 mm
12:06 PM 50.4°F10.2°C 23.8°F-4.6°C 35% 12.0 mph NW19.3 kmh NW 20.0 mph32.2 kmh 29.58 in1001.7 mb 0.00 in0.0 mm 0.00 in0.0 mm 0.01 in0.3 mm
12:05 PM 50.3°F10.2°C 23.7°F-4.6°C 35% 12.0 mph NW19.3 kmh NW 18.0 mph29.0 kmh 29.58 in1001.7 mb 0.00 in0.0 mm 0.00 in0.0 mm 0.01 in0.3 mm
12:04 PM 50.3°F10.2°C 24.1°F-4.4°C 36% 11.0 mph NW17.7 kmh NW 19.0 mph30.6 kmh 29.58 in1001.7 mb 0.00 in0.0 mm 0.00 in0.0 mm 0.01 in0.3 mm
12:03 PM 50.2°F10.1°C 24.3°F-4.3°C 36% 13.0 mph NW20.9 kmh NW 19.0 mph30.6 kmh 29.58 in1001.7 mb 0.00 in0.0 mm 0.00 in0.0 mm 0.01 in0.3 mm
12:02 PM 50.2°F10.1°C 24.3°F-4.3°C 36% 11.0 mph NW17.7 kmh NW 18.0 mph29.0 kmh 29.58 in1001.7 mb 0.00 in0.0 mm 0.00 in0.0 mm 0.01 in0.3 mm
12:01 PM 50.1°F10.1°C 24.1°F-4.4°C 36% 10.0 mph NW16.1 kmh NW 18.0 mph29.0 kmh 29.58 in1001.7 mb 0.00 in0.0 mm 0.00 in0.0 mm 0.01 in0.3 mm
12:00 PM 50.1°F10.1°C 23.5°F-4.7°C 35% 12.0 mph NW19.3 kmh NW 17.0 mph27.4 kmh 29.58 in1001.7 mb 0.00 in0.0 mm 0.00 in0.0 mm 0.01 in0.3 mm
11:59 AM 50.1°F10.1°C 23.5°F-4.7°C 35% 12.0 mph NW19.3 kmh NW 20.0 mph32.2 kmh 29.58 in1001.7 mb 0.00 in0.0 mm 0.00 in0.0 mm 0.01 in0.3 mm
11:58 AM 50.0°F10.0°C 23.8°F-4.6°C 36% 13.0 mph NW20.9 kmh NW 22.0 mph35.4 kmh 29.58 in1001.7 mb 0.00 in0.0 mm 0.00 in0.0 mm 0.01 in0.3 mm
11:57 AM 49.8°F9.9°C 24.9°F-3.9°C 37% 16.0 mph NW25.7 kmh NW 22.0 mph35.4 kmh 29.58 in1001.7 mb 0.00 in0.0 mm 0.00 in0.0 mm 0.01 in0.3 mm
11:56 AM 49.7°F9.8°C 25.1°F-3.8°C 38% 8.0 mph WNW12.9 kmh WNW 17.0 mph27.4 kmh 29.58 in1001.7 mb 0.00 in0.0 mm 0.00 in0.0 mm 0.01 in0.3 mm
11:55 AM 49.5°F9.7°C 25.1°F-3.8°C 38% 10.0 mph NW16.1 kmh NW 17.0 mph27.4 kmh 29.58 in1001.7 mb 0.00 in0.0 mm 0.00 in0.0 mm 0.01 in0.3 mm
11:54 AM 49.4°F9.7°C 25.5°F-3.6°C 39% 13.0 mph NW20.9 kmh NW 17.0 mph27.4 kmh 29.58 in1001.7 mb 0.00 in0.0 mm 0.00 in0.0 mm 0.01 in0.3 mm
11:53 AM 49.2°F9.6°C 25.3°F-3.7°C 39% 6.0 mph WNW9.7 kmh WNW 17.0 mph27.4 kmh 29.58 in1001.7 mb 0.00 in0.0 mm 0.00 in0.0 mm 0.01 in0.3 mm
11:52 AM 49.0°F9.4°C 25.2°F-3.8°C 39% 11.0 mph NW17.7 kmh NW 17.0 mph27.4 kmh 29.58 in1001.7 mb 0.00 in0.0 mm 0.00 in0.0 mm 0.01 in0.3 mm
11:51 AM 48.9°F9.4°C 25.0°F-3.9°C 39% 8.0 mph NW12.9 kmh NW 21.0 mph33.8 kmh 29.58 in1001.7 mb 0.00 in0.0 mm 0.00 in0.0 mm 0.01 in0.3 mm
11:50 AM 48.7°F9.3°C 25.4°F-3.7°C 40% 12.0 mph NW19.3 kmh NW 21.0 mph33.8 kmh 29.58 in1001.7 mb 0.00 in0.0 mm 0.00 in0.0 mm 0.01 in0.3 mm
11:49 AM 48.5°F9.2°C 26.0°F-3.3°C 41% 11.0 mph NW17.7 kmh NW 21.0 mph33.8 kmh 29.58 in1001.7 mb 0.00 in0.0 mm 0.00 in0.0 mm 0.01 in0.3 mm
11:48 AM 48.4°F9.1°C 26.3°F-3.2°C 42% 10.0 mph NW16.1 kmh NW 17.0 mph27.4 kmh 29.58 in1001.7 mb 0.00 in0.0 mm 0.00 in0.0 mm 0.01 in0.3 mm
11:47 AM 48.1°F8.9°C 26.6°F-3.0°C 43% 12.0 mph NW19.3 kmh NW 17.0 mph27.4 kmh 29.58 in1001.7 mb 0.00 in0.0 mm 0.00 in0.0 mm 0.01 in0.3 mm
11:46 AM 47.8°F8.8°C 27.3°F-2.6°C 45% 9.0 mph NW14.5 kmh NW 17.0 mph27.4 kmh 29.58 in1001.7 mb 0.00 in0.0 mm 0.00 in0.0 mm 0.01 in0.3 mm
11:45 AM 47.5°F8.6°C 28.0°F-2.2°C 47% 10.0 mph NW16.1 kmh NW 20.0 mph32.2 kmh 29.58 in1001.7 mb 0.00 in0.0 mm 0.00 in0.0 mm 0.01 in0.3 mm
11:44 AM 47.1°F8.4°C 29.9°F-1.2°C 51% 12.0 mph NW19.3 kmh NW 20.0 mph32.2 kmh 29.58 in1001.7 mb 0.00 in0.0 mm 0.00 in0.0 mm 0.01 in0.3 mm
11:43 AM 46.8°F8.2°C 31.3°F-0.4°C 55% 8.0 mph NW12.9 kmh NW 15.0 mph24.1 kmh 29.58 in1001.7 mb 0.00 in0.0 mm 0.00 in0.0 mm 0.01 in0.3 mm
11:42 AM 46.6°F8.1°C 32.2°F0.1°C 57% 6.0 mph NW9.7 kmh NW 13.0 mph20.9 kmh 29.58 in1001.7 mb 0.00 in0.0 mm 0.00 in0.0 mm 0.01 in0.3 mm
11:41 AM 46.3°F7.9°C 32.6°F0.3°C 59% 7.0 mph NW11.3 kmh NW 16.0 mph25.7 kmh 29.58 in1001.7 mb 0.00 in0.0 mm 0.00 in0.0 mm 0.01 in0.3 mm
11:40 AM 46.1°F7.8°C 33.8°F1.0°C 62% 10.0 mph NW16.1 kmh NW 16.0 mph25.7 kmh 29.58 in1001.7 mb 0.00 in0.0 mm 0.00 in0.0 mm 0.01 in0.3 mm
11:39 AM 45.9°F7.7°C 34.7°F1.5°C 65% 5.0 mph NW8.0 kmh NW 11.0 mph17.7 kmh 29.58 in1001.7 mb 0.00 in0.0 mm 0.00 in0.0 mm 0.01 in0.3 mm
11:38 AM 45.8°F7.7°C 35.1°F1.7°C 66% 5.0 mph WNW8.0 kmh WNW 9.0 mph14.5 kmh 29.58 in1001.7 mb 0.00 in0.0 mm 0.00 in0.0 mm 0.01 in0.3 mm
11:37 AM 45.6°F7.6°C 35.4°F1.9°C 67% 4.0 mph NW6.4 kmh NW 9.0 mph14.5 kmh 29.58 in1001.7 mb 0.00 in0.0 mm 0.00 in0.0 mm 0.01 in0.3 mm
11:36 AM 45.4°F7.4°C 35.5°F1.9°C 68% 3.0 mph NW4.8 kmh NW 9.0 mph14.5 kmh 29.58 in1001.7 mb 0.00 in0.0 mm 0.00 in0.0 mm 0.01 in0.3 mm
11:35 AM 45.2°F7.3°C 35.3°F1.8°C 68% 4.0 mph NW6.4 kmh NW 9.0 mph14.5 kmh 29.58 in1001.7 mb 0.00 in0.0 mm 0.00 in0.0 mm 0.01 in0.3 mm
11:34 AM 45.0°F7.2°C 35.3°F1.8°C 69% 6.0 mph NW9.7 kmh NW 9.0 mph14.5 kmh 29.58 in1001.7 mb 0.00 in0.0 mm 0.00 in0.0 mm 0.01 in0.3 mm
11:33 AM 44.8°F7.1°C 35.3°F1.8°C 69% 5.0 mph NW8.0 kmh NW 10.0 mph16.1 kmh 29.58 in1001.7 mb 0.00 in0.0 mm 0.00 in0.0 mm 0.01 in0.3 mm
11:32 AM 44.6°F7.0°C 35.1°F1.7°C 69% 7.0 mph NW11.3 kmh NW 10.0 mph16.1 kmh 29.58 in1001.7 mb 0.00 in0.0 mm 0.00 in0.0 mm 0.01 in0.3 mm
11:31 AM 44.4°F6.9°C 35.3°F1.8°C 70% 5.0 mph NW8.0 kmh NW 8.0 mph12.9 kmh 29.58 in1001.7 mb 0.00 in0.0 mm 0.00 in0.0 mm 0.01 in0.3 mm
11:30 AM 44.2°F6.8°C 35.4°F1.9°C 71% 4.0 mph NW6.4 kmh NW 9.0 mph14.5 kmh 29.58 in1001.7 mb 0.00 in0.0 mm 0.00 in0.0 mm 0.01 in0.3 mm
11:29 AM 44.1°F6.7°C 35.5°F1.9°C 72% 5.0 mph WNW8.0 kmh WNW 9.0 mph14.5 kmh 29.58 in1001.7 mb 0.00 in0.0 mm 0.00 in0.0 mm 0.01 in0.3 mm
11:28 AM 43.9°F6.6°C 35.5°F1.9°C 72% 5.0 mph WNW8.0 kmh WNW 11.0 mph17.7 kmh 29.58 in1001.7 mb 0.00 in0.0 mm 0.00 in0.0 mm 0.01 in0.3 mm
11:27 AM 43.8°F6.6°C 35.4°F1.9°C 72% 6.0 mph WNW9.7 kmh WNW 15.0 mph24.1 kmh 29.58 in1001.7 mb 0.00 in0.0 mm 0.00 in0.0 mm 0.01 in0.3 mm
11:26 AM 43.6°F6.4°C 35.6°F2.0°C 73% 11.0 mph WNW17.7 kmh WNW 15.0 mph24.1 kmh 29.58 in1001.7 mb 0.00 in0.0 mm 0.00 in0.0 mm 0.01 in0.3 mm
11:25 AM 43.5°F6.4°C 35.7°F2.1°C 74% 8.0 mph WNW12.9 kmh WNW 11.0 mph17.7 kmh 29.58 in1001.7 mb 0.00 in0.0 mm 0.00 in0.0 mm 0.01 in0.3 mm
11:24 AM 43.3°F6.3°C 35.8°F2.1°C 74% 7.0 mph WNW11.3 kmh WNW 11.0 mph17.7 kmh 29.58 in1001.7 mb 0.00 in0.0 mm 0.00 in0.0 mm 0.01 in0.3 mm
11:23 AM 43.2°F6.2°C 35.8°F2.1°C 75% 7.0 mph WNW11.3 kmh WNW 11.0 mph17.7 kmh 29.58 in1001.7 mb 0.00 in0.0 mm 0.00 in0.0 mm 0.01 in0.3 mm
11:22 AM 43.0°F6.1°C 35.9°F2.2°C 76% 4.0 mph WNW6.4 kmh WNW 7.0 mph11.3 kmh 29.58 in1001.7 mb 0.00 in0.0 mm 0.00 in0.0 mm 0.01 in0.3 mm
11:21 AM 42.8°F6.0°C 35.8°F2.1°C 76% 2.0 mph WNW3.2 kmh WNW 8.0 mph12.9 kmh 29.58 in1001.7 mb 0.00 in0.0 mm 0.00 in0.0 mm 0.01 in0.3 mm
11:20 AM 42.6°F5.9°C 35.6°F2.0°C 76% 4.0 mph NW6.4 kmh NW 8.0 mph12.9 kmh 29.58 in1001.7 mb 0.00 in0.0 mm 0.00 in0.0 mm 0.01 in0.3 mm
11:19 AM 42.5°F5.8°C 35.5°F1.9°C 76% 5.0 mph WNW8.0 kmh WNW 10.0 mph16.1 kmh 29.58 in1001.7 mb 0.00 in0.0 mm 0.00 in0.0 mm 0.01 in0.3 mm
11:18 AM 42.3°F5.7°C 35.6°F2.0°C 77% 6.0 mph WNW9.7 kmh WNW 11.0 mph17.7 kmh 29.58 in1001.7 mb 0.00 in0.0 mm 0.00 in0.0 mm 0.01 in0.3 mm
11:17 AM 42.1°F5.6°C 35.6°F2.0°C 78% 8.0 mph WNW12.9 kmh WNW 11.0 mph17.7 kmh 29.58 in1001.7 mb 0.00 in0.0 mm 0.00 in0.0 mm 0.01 in0.3 mm
11:16 AM 41.9°F5.5°C 35.6°F2.0°C 78% 3.0 mph NW4.8 kmh NW 10.0 mph16.1 kmh 29.58 in1001.7 mb 0.00 in0.0 mm 0.00 in0.0 mm 0.01 in0.3 mm
11:15 AM 41.7°F5.4°C 35.4°F1.9°C 78% 6.0 mph WNW9.7 kmh WNW 10.0 mph16.1 kmh 29.58 in1001.7 mb 0.00 in0.0 mm 0.00 in0.0 mm 0.01 in0.3 mm
11:14 AM 41.5°F5.3°C 35.5°F1.9°C 79% 5.0 mph W8.0 kmh W 13.0 mph20.9 kmh 29.58 in1001.7 mb 0.00 in0.0 mm 0.00 in0.0 mm 0.01 in0.3 mm
11:13 AM 41.3°F5.2°C 35.4°F1.9°C 79% 10.0 mph WNW16.1 kmh WNW 13.0 mph20.9 kmh 29.57 in1001.4 mb 0.00 in0.0 mm 0.00 in0.0 mm 0.01 in0.3 mm
11:12 AM 41.1°F5.1°C 35.4°F1.9°C 80% 10.0 mph WNW16.1 kmh WNW 13.0 mph20.9 kmh 29.57 in1001.4 mb 0.00 in0.0 mm 0.00 in0.0 mm 0.01 in0.3 mm
11:11 AM 40.9°F4.9°C 35.2°F1.8°C 80% 8.0 mph W12.9 kmh W 11.0 mph17.7 kmh 29.57 in1001.4 mb 0.00 in0.0 mm 0.00 in0.0 mm 0.01 in0.3 mm
11:10 AM 40.7°F4.8°C 35.3°F1.8°C 81% 9.0 mph WNW14.5 kmh WNW 14.0 mph22.5 kmh 29.58 in1001.7 mb 0.00 in0.0 mm 0.00 in0.0 mm 0.01 in0.3 mm
11:09 AM 40.5°F4.7°C 35.1°F1.7°C 81% 9.0 mph WNW14.5 kmh WNW 14.0 mph22.5 kmh 29.58 in1001.7 mb 0.00 in0.0 mm 0.00 in0.0 mm 0.01 in0.3 mm
11:08 AM 40.4°F4.7°C 35.1°F1.7°C 81% 11.0 mph WNW17.7 kmh WNW 16.0 mph25.7 kmh 29.57 in1001.4 mb 0.00 in0.0 mm 0.00 in0.0 mm 0.01 in0.3 mm
11:07 AM 40.2°F4.6°C 35.2°F1.8°C 82% 10.0 mph WNW16.1 kmh WNW 16.0 mph25.7 kmh 29.57 in1001.4 mb 0.00 in0.0 mm 0.00 in0.0 mm 0.01 in0.3 mm
11:06 AM 40.0°F4.4°C 35.1°F1.7°C 82% 10.0 mph W16.1 kmh W 12.0 mph19.3 kmh 29.57 in1001.4 mb 0.00 in0.0 mm 0.00 in0.0 mm 0.01 in0.3 mm
11:05 AM 39.9°F4.4°C 35.1°F1.7°C 83% 8.0 mph WNW12.9 kmh WNW 17.0 mph27.4 kmh 29.57 in1001.4 mb 0.00 in0.0 mm 0.00 in0.0 mm 0.01 in0.3 mm
11:04 AM 39.7°F4.3°C 35.2°F1.8°C 84% 10.0 mph WNW16.1 kmh WNW 17.0 mph27.4 kmh 29.58 in1001.7 mb 0.00 in0.0 mm 0.00 in0.0 mm 0.01 in0.3 mm
11:03 AM 39.4°F4.1°C 35.0°F1.7°C 84% 9.0 mph WNW14.5 kmh WNW 13.0 mph20.9 kmh 29.58 in1001.7 mb 0.00 in0.0 mm 0.00 in0.0 mm 0.01 in0.3 mm
11:02 AM 39.3°F4.1°C 34.8°F1.6°C 84% 10.0 mph WNW16.1 kmh WNW 13.0 mph20.9 kmh 29.57 in1001.4 mb 0.00 in0.0 mm 0.00 in0.0 mm 0.01 in0.3 mm
11:01 AM 39.1°F3.9°C 34.8°F1.6°C 84% 7.0 mph WNW11.3 kmh WNW 15.0 mph24.1 kmh 29.57 in1001.4 mb 0.00 in0.0 mm 0.00 in0.0 mm 0.01 in0.3 mm
11:00 AM 38.9°F3.8°C 34.8°F1.6°C 85% 11.0 mph W17.7 kmh W 15.0 mph24.1 kmh 29.57 in1001.4 mb 0.00 in0.0 mm 0.00 in0.0 mm 0.01 in0.3 mm
10:59 AM 38.7°F3.7°C 34.6°F1.4°C 85% 12.0 mph WNW19.3 kmh WNW 15.0 mph24.1 kmh 29.57 in1001.4 mb 0.00 in0.0 mm 0.00 in0.0 mm 0.01 in0.3 mm
10:58 AM 38.5°F3.6°C 34.6°F1.4°C 86% 10.0 mph WNW16.1 kmh WNW 14.0 mph22.5 kmh 29.57 in1001.4 mb 0.00 in0.0 mm 0.00 in0.0 mm 0.01 in0.3 mm
10:57 AM 38.4°F3.6°C 34.6°F1.4°C 86% 8.0 mph W12.9 kmh W 13.0 mph20.9 kmh 29.57 in1001.4 mb 0.00 in0.0 mm 0.00 in0.0 mm 0.01 in0.3 mm
10:56 AM 38.3°F3.5°C 34.5°F1.4°C 86% 11.0 mph WNW17.7 kmh WNW 13.0 mph20.9 kmh 29.57 in1001.4 mb 0.00 in0.0 mm 0.00 in0.0 mm 0.01 in0.3 mm
10:55 AM 38.2°F3.4°C 34.4°F1.3°C 86% 9.0 mph WNW14.5 kmh WNW 13.0 mph20.9 kmh 29.57 in1001.4 mb 0.00 in0.0 mm 0.00 in0.0 mm 0.01 in0.3 mm
10:54 AM 38.1°F3.4°C 34.3°F1.3°C 86% 10.0 mph W16.1 kmh W 14.0 mph22.5 kmh 29.57 in1001.4 mb 0.00 in0.0 mm 0.00 in0.0 mm 0.01 in0.3 mm
10:53 AM 38.0°F3.3°C 34.2°F1.2°C 86% 10.0 mph W16.1 kmh W 16.0 mph25.7 kmh 29.57 in1001.4 mb 0.00 in0.0 mm 0.00 in0.0 mm 0.01 in0.3 mm
10:52 AM 38.0°F3.3°C 34.4°F1.3°C 87% 11.0 mph W17.7 kmh W 16.0 mph25.7 kmh 29.57 in1001.4 mb 0.00 in0.0 mm 0.00 in0.0 mm 0.01 in0.3 mm
10:51 AM 37.8°F3.2°C 34.3°F1.3°C 87% 10.0 mph W16.1 kmh W 14.0 mph22.5 kmh 29.57 in1001.4 mb 0.00 in0.0 mm 0.00 in0.0 mm 0.01 in0.3 mm
10:50 AM 37.8°F3.2°C 34.3°F1.3°C 87% 11.0 mph W17.7 kmh W 14.0 mph22.5 kmh 29.57 in1001.4 mb 0.00 in0.0 mm 0.00 in0.0 mm 0.01 in0.3 mm
10:49 AM 37.6°F3.1°C 34.4°F1.3°C 88% 11.0 mph WSW17.7 kmh WSW 13.0 mph20.9 kmh 29.57 in1001.4 mb 0.00 in0.0 mm 0.00 in0.0 mm 0.01 in0.3 mm
10:48 AM 37.6°F3.1°C 34.3°F1.3°C 88% 9.0 mph WSW14.5 kmh WSW 15.0 mph24.1 kmh 29.57 in1001.4 mb 0.00 in0.0 mm 0.00 in0.0 mm 0.01 in0.3 mm
10:47 AM 37.5°F3.1°C 34.4°F1.3°C 89% 12.0 mph W19.3 kmh W 15.0 mph24.1 kmh 29.57 in1001.4 mb 0.00 in0.0 mm 0.00 in0.0 mm 0.01 in0.3 mm
10:46 AM 37.4°F3.0°C 34.4°F1.3°C 89% 9.0 mph W14.5 kmh W 14.0 mph22.5 kmh 29.57 in1001.4 mb 0.00 in0.0 mm 0.00 in0.0 mm 0.01 in0.3 mm
10:45 AM 37.3°F2.9°C 34.3°F1.3°C 89% 11.0 mph W17.7 kmh W 14.0 mph22.5 kmh 29.57 in1001.4 mb 0.00 in0.0 mm 0.00 in0.0 mm 0.01 in0.3 mm
10:44 AM 37.2°F2.9°C 34.3°F1.3°C 89% 10.0 mph W16.1 kmh W 14.0 mph22.5 kmh 29.57 in1001.4 mb 0.00 in0.0 mm 0.00 in0.0 mm 0.01 in0.3 mm
10:43 AM 37.1°F2.8°C 34.4°F1.3°C 90% 10.0 mph W16.1 kmh W 16.0 mph25.7 kmh 29.57 in1001.4 mb 0.00 in0.0 mm 0.00 in0.0 mm 0.01 in0.3 mm
10:42 AM 36.9°F2.7°C 34.3°F1.3°C 90% 12.0 mph W19.3 kmh W 16.0 mph25.7 kmh 29.57 in1001.4 mb 0.00 in0.0 mm 0.00 in0.0 mm 0.01 in0.3 mm
10:41 AM 36.9°F2.7°C 34.2°F1.2°C 90% 11.0 mph WSW17.7 kmh WSW 14.0 mph22.5 kmh 29.57 in1001.4 mb 0.00 in0.0 mm 0.00 in0.0 mm 0.01 in0.3 mm
10:40 AM 36.8°F2.7°C 34.1°F1.2°C 90% 8.0 mph WSW12.9 kmh WSW 11.0 mph17.7 kmh 29.57 in1001.4 mb 0.00 in0.0 mm 0.00 in0.0 mm 0.01 in0.3 mm
10:39 AM 36.7°F2.6°C 34.1°F1.2°C 90% 8.0 mph WSW12.9 kmh WSW 11.0 mph17.7 kmh 29.57 in1001.4 mb 0.00 in0.0 mm 0.00 in0.0 mm 0.01 in0.3 mm
10:38 AM 36.6°F2.6°C 34.1°F1.2°C 90% 7.0 mph WSW11.3 kmh WSW 14.0 mph22.5 kmh 29.57 in1001.4 mb 0.00 in0.0 mm 0.00 in0.0 mm 0.01 in0.3 mm
10:37 AM 36.6°F2.6°C 34.2°F1.2°C 91% 10.0 mph WSW16.1 kmh WSW 15.0 mph24.1 kmh 29.57 in1001.4 mb 0.00 in0.0 mm 0.00 in0.0 mm 0.01 in0.3 mm
10:36 AM 36.5°F2.5°C 34.1°F1.2°C 91% 12.0 mph WSW19.3 kmh WSW 15.0 mph24.1 kmh 29.57 in1001.4 mb 0.00 in0.0 mm 0.00 in0.0 mm 0.01 in0.3 mm
10:35 AM 36.4°F2.4°C 34.0°F1.1°C 91% 9.0 mph W14.5 kmh W 11.0 mph17.7 kmh 29.57 in1001.4 mb 0.00 in0.0 mm 0.00 in0.0 mm 0.01 in0.3 mm
10:34 AM 36.4°F2.4°C 34.0°F1.1°C 91% 9.0 mph W14.5 kmh W 11.0 mph17.7 kmh 29.57 in1001.4 mb 0.00 in0.0 mm 0.00 in0.0 mm 0.01 in0.3 mm
10:33 AM 36.4°F2.4°C 34.0°F1.1°C 91% 8.0 mph WSW12.9 kmh WSW 11.0 mph17.7 kmh 29.56 in1001.0 mb 0.00 in0.0 mm 0.00 in0.0 mm 0.01 in0.3 mm
10:32 AM 36.4°F2.4°C 34.0°F1.1°C 91% 8.0 mph WSW12.9 kmh WSW 13.0 mph20.9 kmh 29.56 in1001.0 mb 0.00 in0.0 mm 0.00 in0.0 mm 0.01 in0.3 mm
10:31 AM 36.4°F2.4°C 34.0°F1.1°C 91% 10.0 mph WSW16.1 kmh WSW 19.0 mph30.6 kmh 29.57 in1001.4 mb 0.00 in0.0 mm 0.00 in0.0 mm 0.01 in0.3 mm
10:30 AM 36.4°F2.4°C 34.0°F1.1°C 91% 13.0 mph W20.9 kmh W 19.0 mph30.6 kmh 29.57 in1001.4 mb 0.00 in0.0 mm 0.00 in0.0 mm 0.01 in0.3 mm
10:29 AM 36.4°F2.4°C 34.0°F1.1°C 91% 10.0 mph W16.1 kmh W 15.0 mph24.1 kmh 29.57 in1001.4 mb 0.00 in0.0 mm 0.00 in0.0 mm 0.01 in0.3 mm
10:28 AM 36.4°F2.4°C 34.0°F1.1°C 91% 12.0 mph WSW19.3 kmh WSW 15.0 mph24.1 kmh 29.57 in1001.4 mb 0.00 in0.0 mm 0.00 in0.0 mm 0.01 in0.3 mm
10:27 AM 36.4°F2.4°C 34.0°F1.1°C 91% 10.0 mph WSW16.1 kmh WSW 14.0 mph22.5 kmh 29.56 in1001.0 mb 0.00 in0.0 mm 0.00 in0.0 mm 0.01 in0.3 mm
10:26 AM 36.4°F2.4°C 34.0°F1.1°C 91% 9.0 mph WSW14.5 kmh WSW 13.0 mph20.9 kmh 29.56 in1001.0 mb 0.00 in0.0 mm 0.00 in0.0 mm 0.01 in0.3 mm
10:25 AM 36.4°F2.4°C 34.0°F1.1°C 91% 10.0 mph WSW16.1 kmh WSW 13.0 mph20.9 kmh 29.56 in1001.0 mb 0.00 in0.0 mm 0.00 in0.0 mm 0.01 in0.3 mm
10:24 AM 36.4°F2.4°C 34.0°F1.1°C 91% 6.0 mph WSW9.7 kmh WSW 12.0 mph19.3 kmh 29.56 in1001.0 mb 0.00 in0.0 mm 0.00 in0.0 mm 0.01 in0.3 mm
10:23 AM 36.4°F2.4°C 34.0°F1.1°C 91% 5.0 mph WSW8.0 kmh WSW 8.0 mph12.9 kmh 29.56 in1001.0 mb 0.00 in0.0 mm 0.00 in0.0 mm 0.01 in0.3 mm
10:22 AM 36.4°F2.4°C 34.0°F1.1°C 91% 6.0 mph WSW9.7 kmh WSW 12.0 mph19.3 kmh 29.56 in1001.0 mb 0.00 in0.0 mm 0.00 in0.0 mm 0.01 in0.3 mm
10:21 AM 36.4°F2.4°C 34.0°F1.1°C 91% 8.0 mph WSW12.9 kmh WSW 12.0 mph19.3 kmh 29.56 in1001.0 mb 0.00 in0.0 mm 0.00 in0.0 mm 0.01 in0.3 mm
10:20 AM 36.4°F2.4°C 34.0°F1.1°C 91% 10.0 mph WSW16.1 kmh WSW 12.0 mph19.3 kmh 29.56 in1001.0 mb 0.00 in0.0 mm 0.00 in0.0 mm 0.01 in0.3 mm
10:19 AM 36.4°F2.4°C 34.0°F1.1°C 91% 8.0 mph W12.9 kmh W 13.0 mph20.9 kmh 29.56 in1001.0 mb 0.00 in0.0 mm 0.00 in0.0 mm 0.01 in0.3 mm
10:18 AM 36.4°F2.4°C 34.0°F1.1°C 91% 9.0 mph WSW14.5 kmh WSW 13.0 mph20.9 kmh 29.56 in1001.0 mb 0.00 in0.0 mm 0.00 in0.0 mm 0.01 in0.3 mm
10:17 AM 36.4°F2.4°C 34.0°F1.1°C 91% 10.0 mph WSW16.1 kmh WSW 12.0 mph19.3 kmh 29.56 in1001.0 mb 0.00 in0.0 mm 0.00 in0.0 mm 0.01 in0.3 mm
10:16 AM 36.3°F2.4°C 34.0°F1.1°C 91% 8.0 mph WSW12.9 kmh WSW 14.0 mph22.5 kmh 29.55 in1000.7 mb 0.00 in0.0 mm 0.00 in0.0 mm 0.01 in0.3 mm
10:15 AM 36.3°F2.4°C 34.2°F1.2°C 92% 11.0 mph W17.7 kmh W 14.0 mph22.5 kmh 29.55 in1000.7 mb 0.00 in0.0 mm 0.00 in0.0 mm 0.01 in0.3 mm
10:14 AM 36.3°F2.4°C 34.2°F1.2°C 92% 9.0 mph W14.5 kmh W 14.0 mph22.5 kmh 29.55 in1000.7 mb 0.00 in0.0 mm 0.00 in0.0 mm 0.01 in0.3 mm
10:13 AM 36.2°F2.3°C 34.1°F1.2°C 92% 8.0 mph WSW12.9 kmh WSW 13.0 mph20.9 kmh 29.55 in1000.7 mb 0.00 in0.0 mm 0.00 in0.0 mm 0.01 in0.3 mm
10:12 AM 36.2°F2.3°C 33.9°F1.1°C 91% 10.0 mph WSW16.1 kmh WSW 15.0 mph24.1 kmh 29.55 in1000.7 mb 0.00 in0.0 mm 0.00 in0.0 mm 0.01 in0.3 mm
10:11 AM 36.2°F2.3°C 33.8°F1.0°C 91% 11.0 mph WSW17.7 kmh WSW 15.0 mph24.1 kmh 29.55 in1000.7 mb 0.00 in0.0 mm 0.00 in0.0 mm 0.01 in0.3 mm
10:10 AM 36.2°F2.3°C 34.1°F1.2°C 92% 11.0 mph WSW17.7 kmh WSW 15.0 mph24.1 kmh 29.55 in1000.7 mb 0.00 in0.0 mm 0.00 in0.0 mm 0.01 in0.3 mm
10:09 AM 36.2°F2.3°C 34.1°F1.2°C 92% 12.0 mph WSW19.3 kmh WSW 15.0 mph24.1 kmh 29.55 in1000.7 mb 0.00 in0.0 mm 0.00 in0.0 mm 0.01 in0.3 mm
10:08 AM 36.1°F2.3°C 34.0°F1.1°C 92% 10.0 mph WSW16.1 kmh WSW 15.0 mph24.1 kmh 29.55 in1000.7 mb 0.00 in0.0 mm 0.00 in0.0 mm 0.01 in0.3 mm
10:07 AM 36.0°F2.2°C 33.9°F1.1°C 92% 9.0 mph WNW14.5 kmh WNW 15.0 mph24.1 kmh 29.55 in1000.7 mb 0.00 in0.0 mm 0.00 in0.0 mm 0.01 in0.3 mm
10:06 AM 36.0°F2.2°C 33.9°F1.1°C 92% 10.0 mph W16.1 kmh W 12.0 mph19.3 kmh 29.55 in1000.7 mb 0.00 in0.0 mm 0.00 in0.0 mm 0.01 in0.3 mm
10:05 AM 36.0°F2.2°C 33.9°F1.1°C 92% 10.0 mph W16.1 kmh W 13.0 mph20.9 kmh 29.54 in1000.3 mb 0.00 in0.0 mm 0.00 in0.0 mm 0.01 in0.3 mm
10:04 AM 36.0°F2.2°C 33.9°F1.1°C 92% 11.0 mph W17.7 kmh W 13.0 mph20.9 kmh 29.55 in1000.7 mb 0.00 in0.0 mm 0.00 in0.0 mm 0.01 in0.3 mm
10:03 AM 36.0°F2.2°C 33.9°F1.1°C 92% 8.0 mph W12.9 kmh W 12.0 mph19.3 kmh 29.55 in1000.7 mb 0.00 in0.0 mm 0.00 in0.0 mm 0.01 in0.3 mm
10:02 AM 36.0°F2.2°C 33.9°F1.1°C 92% 9.0 mph WSW14.5 kmh WSW 13.0 mph20.9 kmh 29.55 in1000.7 mb 0.00 in0.0 mm 0.00 in0.0 mm 0.01 in0.3 mm
10:01 AM 36.0°F2.2°C 33.9°F1.1°C 92% 11.0 mph WSW17.7 kmh WSW 16.0 mph25.7 kmh 29.55 in1000.7 mb 0.00 in0.0 mm 0.00 in0.0 mm 0.01 in0.3 mm
10:00 AM 36.0°F2.2°C 33.9°F1.1°C 92% 11.0 mph WSW17.7 kmh WSW 16.0 mph25.7 kmh 29.55 in1000.7 mb 0.00 in0.0 mm 0.00 in0.0 mm 0.01 in0.3 mm
09:59 AM 36.0°F2.2°C 33.9°F1.1°C 92% 12.0 mph WSW19.3 kmh WSW 16.0 mph25.7 kmh 29.55 in1000.7 mb 0.00 in0.0 mm 0.00 in0.0 mm 0.01 in0.3 mm
09:58 AM 35.9°F2.2°C 33.8°F1.0°C 92% 8.0 mph WSW12.9 kmh WSW 15.0 mph24.1 kmh 29.55 in1000.7 mb 0.00 in0.0 mm 0.00 in0.0 mm 0.01 in0.3 mm
09:57 AM 35.9°F2.2°C 33.8°F1.0°C 92% 11.0 mph WSW17.7 kmh WSW 15.0 mph24.1 kmh 29.55 in1000.7 mb 0.00 in0.0 mm 0.00 in0.0 mm 0.01 in0.3 mm
09:56 AM 35.9°F2.2°C 33.8°F1.0°C 92% 9.0 mph W14.5 kmh W 13.0 mph20.9 kmh 29.55 in1000.7 mb 0.00 in0.0 mm 0.00 in0.0 mm 0.01 in0.3 mm
09:55 AM 35.9°F2.2°C 33.8°F1.0°C 92% 8.0 mph W12.9 kmh W 15.0 mph24.1 kmh 29.55 in1000.7 mb 0.00 in0.0 mm 0.00 in0.0 mm 0.01 in0.3 mm
09:54 AM 35.9°F2.2°C 33.8°F1.0°C 92% 11.0 mph WSW17.7 kmh WSW 15.0 mph24.1 kmh 29.55 in1000.7 mb 0.00 in0.0 mm 0.00 in0.0 mm 0.01 in0.3 mm
09:53 AM 35.9°F2.2°C 33.8°F1.0°C 92% 10.0 mph WSW16.1 kmh WSW 17.0 mph27.4 kmh 29.54 in1000.3 mb 0.00 in0.0 mm 0.00 in0.0 mm 0.01 in0.3 mm
09:52 AM 35.9°F2.2°C 33.8°F1.0°C 92% 13.0 mph W20.9 kmh W 17.0 mph27.4 kmh 29.54 in1000.3 mb 0.00 in0.0 mm 0.00 in0.0 mm 0.01 in0.3 mm
09:51 AM 35.9°F2.2°C 33.8°F1.0°C 92% 13.0 mph WSW20.9 kmh WSW 15.0 mph24.1 kmh 29.54 in1000.3 mb 0.00 in0.0 mm 0.00 in0.0 mm 0.01 in0.3 mm
09:50 AM 35.9°F2.2°C 33.8°F1.0°C 92% 10.0 mph WSW16.1 kmh WSW 15.0 mph24.1 kmh 29.54 in1000.3 mb 0.00 in0.0 mm 0.00 in0.0 mm 0.01 in0.3 mm
09:49 AM 35.9°F2.2°C 33.8°F1.0°C 92% 8.0 mph WSW12.9 kmh WSW 14.0 mph22.5 kmh 29.54 in1000.3 mb 0.00 in0.0 mm 0.00 in0.0 mm 0.01 in0.3 mm
09:48 AM 36.0°F2.2°C 33.9°F1.1°C 92% 9.0 mph WSW14.5 kmh WSW 14.0 mph22.5 kmh 29.54 in1000.3 mb 0.00 in0.0 mm 0.00 in0.0 mm 0.01 in0.3 mm
09:47 AM 36.0°F2.2°C 34.1°F1.2°C 93% 9.0 mph WSW14.5 kmh WSW 15.0 mph24.1 kmh 29.54 in1000.3 mb 0.00 in0.0 mm 0.00 in0.0 mm 0.01 in0.3 mm
09:46 AM 36.0°F2.2°C 34.2°F1.2°C 93% 11.0 mph WSW17.7 kmh WSW 15.0 mph24.1 kmh 29.54 in1000.3 mb 0.00 in0.0 mm 0.00 in0.0 mm 0.01 in0.3 mm
09:45 AM 36.1°F2.3°C 34.2°F1.2°C 93% 10.0 mph WSW16.1 kmh WSW 14.0 mph22.5 kmh 29.54 in1000.3 mb 0.00 in0.0 mm 0.00 in0.0 mm 0.01 in0.3 mm
09:44 AM 36.1°F2.3°C 34.2°F1.2°C 93% 11.0 mph WSW17.7 kmh WSW 14.0 mph22.5 kmh 29.54 in1000.3 mb 0.00 in0.0 mm 0.00 in0.0 mm 0.01 in0.3 mm
09:43 AM 36.0°F2.2°C 34.3°F1.3°C 94% 9.0 mph W14.5 kmh W 13.0 mph20.9 kmh 29.53 in1000.0 mb 0.00 in0.0 mm 0.00 in0.0 mm 0.01 in0.3 mm
09:42 AM 36.0°F2.2°C 34.4°F1.3°C 94% 10.0 mph WSW16.1 kmh WSW 16.0 mph25.7 kmh 29.53 in1000.0 mb 0.00 in0.0 mm 0.00 in0.0 mm 0.01 in0.3 mm
09:41 AM 35.9°F2.2°C 34.3°F1.3°C 94% 11.0 mph WSW17.7 kmh WSW 16.0 mph25.7 kmh 29.53 in1000.0 mb 0.00 in0.0 mm 0.00 in0.0 mm 0.01 in0.3 mm
09:40 AM 35.8°F2.1°C 34.3°F1.3°C 94% 10.0 mph W16.1 kmh W 13.0 mph20.9 kmh 29.53 in1000.0 mb 0.00 in0.0 mm 0.00 in0.0 mm 0.01 in0.3 mm
09:39 AM 35.8°F2.1°C 34.2°F1.2°C 94% 12.0 mph WSW19.3 kmh WSW 13.0 mph20.9 kmh 29.53 in1000.0 mb 0.00 in0.0 mm 0.00 in0.0 mm 0.01 in0.3 mm
09:38 AM 35.7°F2.1°C 34.1°F1.2°C 94% 7.0 mph W11.3 kmh W 10.0 mph16.1 kmh 29.53 in1000.0 mb 0.00 in0.0 mm 0.00 in0.0 mm 0.01 in0.3 mm
09:37 AM 35.6°F2.0°C 34.0°F1.1°C 94% 8.0 mph WSW12.9 kmh WSW 10.0 mph16.1 kmh 29.53 in1000.0 mb 0.00 in0.0 mm 0.00 in0.0 mm 0.01 in0.3 mm
09:36 AM 35.5°F1.9°C 33.9°F1.1°C 94% 6.0 mph W9.7 kmh W 15.0 mph24.1 kmh 29.52 in999.7 mb 0.00 in0.0 mm 0.00 in0.0 mm 0.01 in0.3 mm
09:35 AM 35.4°F1.9°C 33.9°F1.1°C 94% 10.0 mph WSW16.1 kmh WSW 15.0 mph24.1 kmh 29.52 in999.7 mb 0.00 in0.0 mm 0.00 in0.0 mm 0.01 in0.3 mm
09:34 AM 35.3°F1.8°C 33.8°F1.0°C 94% 8.0 mph WSW12.9 kmh WSW 13.0 mph20.9 kmh 29.52 in999.7 mb 0.00 in0.0 mm 0.00 in0.0 mm 0.01 in0.3 mm
09:33 AM 35.3°F1.8°C 33.7°F0.9°C 94% 9.0 mph W14.5 kmh W 13.0 mph20.9 kmh 29.52 in999.7 mb 0.00 in0.0 mm 0.00 in0.0 mm 0.01 in0.3 mm
09:32 AM 35.2°F1.8°C 33.6°F0.9°C 94% 10.0 mph W16.1 kmh W 13.0 mph20.9 kmh 29.52 in999.7 mb 0.00 in0.0 mm 0.00 in0.0 mm 0.01 in0.3 mm
09:31 AM 35.1°F1.7°C 33.6°F0.9°C 94% 9.0 mph WSW14.5 kmh WSW 13.0 mph20.9 kmh 29.52 in999.7 mb 0.00 in0.0 mm 0.00 in0.0 mm 0.01 in0.3 mm
09:30 AM 35.1°F1.7°C 33.5°F0.8°C 94% 6.0 mph W9.7 kmh W 10.0 mph16.1 kmh 29.52 in999.7 mb 0.00 in0.0 mm 0.00 in0.0 mm 0.01 in0.3 mm
09:29 AM 35.0°F1.7°C 33.5°F0.8°C 94% 8.0 mph W12.9 kmh W 10.0 mph16.1 kmh 29.52 in999.7 mb 0.00 in0.0 mm 0.00 in0.0 mm 0.01 in0.3 mm
09:28 AM 35.0°F1.7°C 33.4°F0.8°C 94% 9.0 mph W14.5 kmh W 11.0 mph17.7 kmh 29.52 in999.7 mb 0.00 in0.0 mm 0.00 in0.0 mm 0.01 in0.3 mm
09:27 AM 35.0°F1.7°C 33.4°F0.8°C 94% 9.0 mph WSW14.5 kmh WSW 14.0 mph22.5 kmh 29.52 in999.7 mb 0.00 in0.0 mm 0.00 in0.0 mm 0.01 in0.3 mm
09:26 AM 34.9°F1.6°C 33.5°F0.8°C 95% 11.0 mph WSW17.7 kmh WSW 14.0 mph22.5 kmh 29.52 in999.7 mb 0.00 in0.0 mm 0.00 in0.0 mm 0.01 in0.3 mm
09:25 AM 34.9°F1.6°C 33.6°F0.9°C 95% 7.0 mph W11.3 kmh W 13.0 mph20.9 kmh 29.52 in999.7 mb 0.00 in0.0 mm 0.00 in0.0 mm 0.01 in0.3 mm
09:24 AM 34.9°F1.6°C 33.6°F0.9°C 95% 10.0 mph W16.1 kmh W 13.0 mph20.9 kmh 29.52 in999.7 mb 0.00 in0.0 mm 0.00 in0.0 mm 0.01 in0.3 mm
09:23 AM 34.9°F1.6°C 33.6°F0.9°C 95% 10.0 mph W16.1 kmh W 13.0 mph20.9 kmh 29.52 in999.7 mb 0.00 in0.0 mm 0.00 in0.0 mm 0.01 in0.3 mm
09:22 AM 34.9°F1.6°C 33.6°F0.9°C 95% 9.0 mph W14.5 kmh W 13.0 mph20.9 kmh 29.52 in999.7 mb 0.00 in0.0 mm 0.00 in0.0 mm 0.01 in0.3 mm
09:21 AM 35.0°F1.7°C 33.7°F0.9°C 95% 10.0 mph W16.1 kmh W 16.0 mph25.7 kmh 29.52 in999.7 mb 0.00 in0.0 mm 0.00 in0.0 mm 0.01 in0.3 mm
09:20 AM 35.0°F1.7°C 33.7°F0.9°C 95% 12.0 mph W19.3 kmh W 16.0 mph25.7 kmh 29.52 in999.7 mb 0.00 in0.0 mm 0.00 in0.0 mm 0.01 in0.3 mm
09:19 AM 35.0°F1.7°C 33.7°F0.9°C 95% 12.0 mph W19.3 kmh W 16.0 mph25.7 kmh 29.52 in999.7 mb 0.00 in0.0 mm 0.00 in0.0 mm 0.01 in0.3 mm
09:18 AM 35.0°F1.7°C 33.7°F0.9°C 95% 13.0 mph W20.9 kmh W 16.0 mph25.7 kmh 29.52 in999.7 mb 0.00 in0.0 mm 0.00 in0.0 mm 0.01 in0.3 mm
09:17 AM 35.0°F1.7°C 33.7°F0.9°C 95% 12.0 mph WSW19.3 kmh WSW 16.0 mph25.7 kmh 29.51 in999.3 mb 0.00 in0.0 mm 0.00 in0.0 mm 0.01 in0.3 mm
09:16 AM 35.0°F1.7°C 33.7°F0.9°C 95% 11.0 mph WSW17.7 kmh WSW 13.0 mph20.9 kmh 29.50 in999.0 mb 0.00 in0.0 mm 0.00 in0.0 mm 0.01 in0.3 mm
09:15 AM 35.0°F1.7°C 33.7°F0.9°C 95% 10.0 mph WSW16.1 kmh WSW 12.0 mph19.3 kmh 29.50 in999.0 mb 0.00 in0.0 mm 0.00 in0.0 mm 0.01 in0.3 mm
09:14 AM 35.0°F1.7°C 33.7°F0.9°C 95% 9.0 mph W14.5 kmh W 12.0 mph19.3 kmh 29.50 in999.0 mb 0.00 in0.0 mm 0.00 in0.0 mm 0.01 in0.3 mm
09:13 AM 35.1°F1.7°C 33.8°F1.0°C 95% 9.0 mph W14.5 kmh W 11.0 mph17.7 kmh 29.49 in998.6 mb 0.00 in0.0 mm 0.00 in0.0 mm 0.01 in0.3 mm
09:12 AM 35.1°F1.7°C 33.8°F1.0°C 95% 7.0 mph W11.3 kmh W 9.0 mph14.5 kmh 29.49 in998.6 mb 0.00 in0.0 mm 0.00 in0.0 mm 0.01 in0.3 mm
09:11 AM 35.1°F1.7°C 33.8°F1.0°C 95% 4.0 mph NW6.4 kmh NW 6.0 mph9.7 kmh 29.49 in998.6 mb 0.00 in0.0 mm 0.00 in0.0 mm 0.01 in0.3 mm
09:10 AM 35.1°F1.7°C 33.8°F1.0°C 95% 3.0 mph WNW4.8 kmh WNW 6.0 mph9.7 kmh 29.48 in998.3 mb 0.00 in0.0 mm 0.00 in0.0 mm 0.01 in0.3 mm
09:09 AM 35.0°F1.7°C 33.7°F0.9°C 95% 2.0 mph NNW3.2 kmh NNW 5.0 mph8.0 kmh 29.48 in998.3 mb 0.00 in0.0 mm 0.00 in0.0 mm 0.01 in0.3 mm
09:08 AM 35.0°F1.7°C 33.7°F0.9°C 95% 3.0 mph NW4.8 kmh NW 5.0 mph8.0 kmh 29.49 in998.6 mb 0.00 in0.0 mm 0.00 in0.0 mm 0.01 in0.3 mm
09:07 AM 34.9°F1.6°C 33.6°F0.9°C 95% 3.0 mph NW4.8 kmh NW 4.0 mph6.4 kmh 29.49 in998.6 mb 0.00 in0.0 mm 0.00 in0.0 mm 0.01 in0.3 mm
09:06 AM 34.8°F1.6°C 33.6°F0.9°C 95% 2.0 mph NW3.2 kmh NW 9.0 mph14.5 kmh 29.49 in998.6 mb 0.00 in0.0 mm 0.00 in0.0 mm 0.01 in0.3 mm
09:05 AM 34.8°F1.6°C 33.5°F0.8°C 95% 5.0 mph WNW8.0 kmh WNW 10.0 mph16.1 kmh 29.50 in999.0 mb 0.00 in0.0 mm 0.00 in0.0 mm 0.01 in0.3 mm
09:04 AM 34.7°F1.5°C 33.4°F0.8°C 95% 5.0 mph W8.0 kmh W 11.0 mph17.7 kmh 29.50 in999.0 mb 0.00 in0.0 mm 0.00 in0.0 mm 0.01 in0.3 mm
09:03 AM 34.7°F1.5°C 33.4°F0.8°C 95% 7.0 mph WNW11.3 kmh WNW 12.0 mph19.3 kmh 29.50 in999.0 mb 0.00 in0.0 mm 0.00 in0.0 mm 0.01 in0.3 mm
09:02 AM 34.7°F1.5°C 33.4°F0.8°C 95% 8.0 mph W12.9 kmh W 15.0 mph24.1 kmh 29.50 in999.0 mb 0.00 in0.0 mm 0.00 in0.0 mm 0.01 in0.3 mm
09:01 AM 34.6°F1.4°C 33.3°F0.7°C 95% 10.0 mph W16.1 kmh W 15.0 mph24.1 kmh 29.50 in999.0 mb 0.00 in0.0 mm 0.00 in0.0 mm 0.01 in0.3 mm
09:00 AM 34.6°F1.4°C 33.3°F0.7°C 95% 10.0 mph W16.1 kmh W 15.0 mph24.1 kmh 29.50 in999.0 mb 0.00 in0.0 mm 0.00 in0.0 mm 0.01 in0.3 mm
08:59 AM 34.5°F1.4°C 33.2°F0.7°C 95% 8.0 mph WNW12.9 kmh WNW 16.0 mph25.7 kmh 29.50 in999.0 mb 0.00 in0.0 mm 0.00 in0.0 mm 0.01 in0.3 mm
08:58 AM 34.5°F1.4°C 33.2°F0.7°C 95% 11.0 mph WNW17.7 kmh WNW 17.0 mph27.4 kmh 29.51 in999.3 mb 0.00 in0.0 mm 0.00 in0.0 mm 0.01 in0.3 mm
08:57 AM 34.5°F1.4°C 33.2°F0.7°C 95% 14.0 mph W22.5 kmh W 18.0 mph29.0 kmh 29.51 in999.3 mb 0.00 in0.0 mm 0.00 in0.0 mm 0.01 in0.3 mm
08:56 AM 34.5°F1.4°C 33.2°F0.7°C 95% 13.0 mph W20.9 kmh W 23.0 mph37.0 kmh 29.51 in999.3 mb 0.00 in0.0 mm 0.00 in0.0 mm 0.01 in0.3 mm
08:55 AM 34.5°F1.4°C 33.2°F0.7°C 95% 14.0 mph W22.5 kmh W 23.0 mph37.0 kmh 29.51 in999.3 mb 0.00 in0.0 mm 0.00 in0.0 mm 0.01 in0.3 mm
08:54 AM 34.5°F1.4°C 33.2°F0.7°C 95% 14.0 mph WSW22.5 kmh WSW 17.0 mph27.4 kmh 29.51 in999.3 mb 0.00 in0.0 mm 0.00 in0.0 mm 0.01 in0.3 mm
08:53 AM 34.5°F1.4°C 33.2°F0.7°C 95% 11.0 mph W17.7 kmh W 16.0 mph25.7 kmh 29.51 in999.3 mb 0.00 in0.0 mm 0.00 in0.0 mm 0.01 in0.3 mm
08:52 AM 34.5°F1.4°C 33.3°F0.7°C 95% 13.0 mph WNW20.9 kmh WNW 17.0 mph27.4 kmh 29.51 in999.3 mb 0.00 in0.0 mm 0.00 in0.0 mm 0.01 in0.3 mm
08:51 AM 34.5°F1.4°C 33.2°F0.7°C 95% 12.0 mph W19.3 kmh W 17.0 mph27.4 kmh 29.51 in999.3 mb 0.00 in0.0 mm 0.00 in0.0 mm 0.01 in0.3 mm
08:50 AM 34.5°F1.4°C 33.2°F0.7°C 95% 12.0 mph W19.3 kmh W 19.0 mph30.6 kmh 29.51 in999.3 mb 0.00 in0.0 mm 0.00 in0.0 mm 0.01 in0.3 mm
08:49 AM 34.5°F1.4°C 33.2°F0.7°C 95% 14.0 mph WNW22.5 kmh WNW 19.0 mph30.6 kmh 29.51 in999.3 mb 0.00 in0.0 mm 0.00 in0.0 mm 0.01 in0.3 mm
08:48 AM 34.5°F1.4°C 33.2°F0.7°C 95% 12.0 mph WNW19.3 kmh WNW 19.0 mph30.6 kmh 29.51 in999.3 mb 0.00 in0.0 mm 0.00 in0.0 mm 0.01 in0.3 mm
08:47 AM 34.5°F1.4°C 33.2°F0.7°C 95% 11.0 mph W17.7 kmh W 19.0 mph30.6 kmh 29.51 in999.3 mb 0.00 in0.0 mm 0.00 in0.0 mm 0.01 in0.3 mm
08:46 AM 34.6°F1.4°C 33.3°F0.7°C 95% 13.0 mph W20.9 kmh W 19.0 mph30.6 kmh 29.51 in999.3 mb 0.00 in0.0 mm 0.00 in0.0 mm 0.01 in0.3 mm
08:45 AM 34.6°F1.4°C 33.3°F0.7°C 95% 10.0 mph W16.1 kmh W 15.0 mph24.1 kmh 29.51 in999.3 mb 0.00 in0.0 mm 0.00 in0.0 mm 0.01 in0.3 mm
08:44 AM 34.6°F1.4°C 33.3°F0.7°C 95% 9.0 mph W14.5 kmh W 15.0 mph24.1 kmh 29.51 in999.3 mb 0.00 in0.0 mm 0.00 in0.0 mm 0.01 in0.3 mm
08:43 AM 34.6°F1.4°C 33.3°F0.7°C 95% 11.0 mph W17.7 kmh W 16.0 mph25.7 kmh 29.51 in999.3 mb 0.00 in0.0 mm 0.00 in0.0 mm 0.01 in0.3 mm
08:42 AM 34.7°F1.5°C 33.6°F0.9°C 96% 12.0 mph W19.3 kmh W 16.0 mph25.7 kmh 29.51 in999.3 mb 0.00 in0.0 mm 0.00 in0.0 mm 0.01 in0.3 mm
08:41 AM 34.7°F1.5°C 33.7°F0.9°C 96% 9.0 mph WNW14.5 kmh WNW 12.0 mph19.3 kmh 29.51 in999.3 mb 0.00 in0.0 mm 0.00 in0.0 mm 0.01 in0.3 mm
08:40 AM 34.7°F1.5°C 33.7°F0.9°C 96% 7.0 mph WNW11.3 kmh WNW 13.0 mph20.9 kmh 29.51 in999.3 mb 0.00 in0.0 mm 0.00 in0.0 mm 0.01 in0.3 mm
08:39 AM 34.7°F1.5°C 33.5°F0.8°C 95% 9.0 mph W14.5 kmh W 13.0 mph20.9 kmh 29.51 in999.3 mb 0.00 in0.0 mm 0.00 in0.0 mm 0.01 in0.3 mm
08:38 AM 34.7°F1.5°C 33.5°F0.8°C 95% 6.0 mph WSW9.7 kmh WSW 14.0 mph22.5 kmh 29.50 in999.0 mb 0.00 in0.0 mm 0.00 in0.0 mm 0.01 in0.3 mm
08:37 AM 34.8°F1.6°C 33.5°F0.8°C 95% 7.0 mph WSW11.3 kmh WSW 14.0 mph22.5 kmh 29.50 in999.0 mb 0.00 in0.0 mm 0.00 in0.0 mm 0.01 in0.3 mm
08:36 AM 34.8°F1.6°C 33.5°F0.8°C 95% 6.0 mph W9.7 kmh W 12.0 mph19.3 kmh 29.50 in999.0 mb 0.00 in0.0 mm 0.00 in0.0 mm 0.01 in0.3 mm
08:35 AM 34.8°F1.6°C 33.8°F1.0°C 96% 7.0 mph W11.3 kmh W 10.0 mph16.1 kmh 29.50 in999.0 mb 0.00 in0.0 mm 0.00 in0.0 mm 0.01 in0.3 mm
08:34 AM 34.8°F1.6°C 33.8°F1.0°C 96% 5.0 mph WNW8.0 kmh WNW 11.0 mph17.7 kmh 29.50 in999.0 mb 0.00 in0.0 mm 0.00 in0.0 mm 0.01 in0.3 mm
08:33 AM 34.8°F1.6°C 33.8°F1.0°C 96% 6.0 mph WNW9.7 kmh WNW 11.0 mph17.7 kmh 29.50 in999.0 mb 0.00 in0.0 mm 0.00 in0.0 mm 0.01 in0.3 mm
08:32 AM 34.8°F1.6°C 33.6°F0.9°C 95% 6.0 mph NW9.7 kmh NW 13.0 mph20.9 kmh 29.50 in999.0 mb 0.00 in0.0 mm 0.00 in0.0 mm 0.01 in0.3 mm
08:31 AM 34.8°F1.6°C 33.5°F0.8°C 95% 7.0 mph NW11.3 kmh NW 13.0 mph20.9 kmh 29.50 in999.0 mb 0.00 in0.0 mm 0.00 in0.0 mm 0.01 in0.3 mm
08:30 AM 34.7°F1.5°C 33.4°F0.8°C 95% 5.0 mph WNW8.0 kmh WNW 12.0 mph19.3 kmh 29.50 in999.0 mb 0.00 in0.0 mm 0.00 in0.0 mm 0.01 in0.3 mm
08:29 AM 34.7°F1.5°C 33.5°F0.8°C 95% 8.0 mph WNW12.9 kmh WNW 15.0 mph24.1 kmh 29.50 in999.0 mb 0.00 in0.0 mm 0.00 in0.0 mm 0.01 in0.3 mm
08:28 AM 34.8°F1.6°C 33.7°F0.9°C 96% 11.0 mph WNW17.7 kmh WNW 15.0 mph24.1 kmh 29.50 in999.0 mb 0.00 in0.0 mm 0.00 in0.0 mm 0.01 in0.3 mm
08:27 AM 34.8°F1.6°C 33.8°F1.0°C 96% 10.0 mph WNW16.1 kmh WNW 15.0 mph24.1 kmh 29.50 in999.0 mb 0.00 in0.0 mm 0.00 in0.0 mm 0.01 in0.3 mm
08:26 AM 34.9°F1.6°C 33.9°F1.1°C 96% 13.0 mph WNW20.9 kmh WNW 15.0 mph24.1 kmh 29.50 in999.0 mb 0.00 in0.0 mm 0.00 in0.0 mm 0.01 in0.3 mm
08:25 AM 34.9°F1.6°C 33.9°F1.1°C 96% 7.0 mph W11.3 kmh W 12.0 mph19.3 kmh 29.50 in999.0 mb 0.00 in0.0 mm 0.00 in0.0 mm 0.01 in0.3 mm
08:24 AM 35.0°F1.7°C 34.0°F1.1°C 96% 4.0 mph W6.4 kmh W 13.0 mph20.9 kmh 29.50 in999.0 mb 0.00 in0.0 mm 0.00 in0.0 mm 0.01 in0.3 mm
08:23 AM 34.9°F1.6°C 33.9°F1.1°C 96% 9.0 mph NW14.5 kmh NW 13.0 mph20.9 kmh 29.50 in999.0 mb 0.00 in0.0 mm 0.00 in0.0 mm 0.01 in0.3 mm
08:22 AM 34.9°F1.6°C 33.9°F1.1°C 96% 5.0 mph NW8.0 kmh NW 12.0 mph19.3 kmh 29.50 in999.0 mb 0.00 in0.0 mm 0.00 in0.0 mm 0.01 in0.3 mm
08:21 AM 34.8°F1.6°C 33.8°F1.0°C 96% 8.0 mph NW12.9 kmh NW 12.0 mph19.3 kmh 29.49 in998.6 mb 0.00 in0.0 mm 0.00 in0.0 mm 0.01 in0.3 mm
08:20 AM 34.8°F1.6°C 33.8°F1.0°C 96% 7.0 mph NW11.3 kmh NW 11.0 mph17.7 kmh 29.49 in998.6 mb 0.00 in0.0 mm 0.00 in0.0 mm 0.01 in0.3 mm
08:19 AM 34.8°F1.6°C 33.8°F1.0°C 96% 8.0 mph WNW12.9 kmh WNW 11.0 mph17.7 kmh 29.48 in998.3 mb 0.00 in0.0 mm 0.00 in0.0 mm 0.01 in0.3 mm
08:18 AM 34.8°F1.6°C 33.8°F1.0°C 96% 4.0 mph NW6.4 kmh NW 10.0 mph16.1 kmh 29.49 in998.6 mb 0.00 in0.0 mm 0.00 in0.0 mm 0.01 in0.3 mm
08:17 AM 34.7°F1.5°C 33.7°F0.9°C 96% 7.0 mph WNW11.3 kmh WNW 12.0 mph19.3 kmh 29.49 in998.6 mb 0.00 in0.0 mm 0.00 in0.0 mm 0.01 in0.3 mm
08:16 AM 34.7°F1.5°C 33.7°F0.9°C 96% 8.0 mph WNW12.9 kmh WNW 12.0 mph19.3 kmh 29.48 in998.3 mb 0.00 in0.0 mm 0.00 in0.0 mm 0.01 in0.3 mm
08:15 AM 34.7°F1.5°C 33.7°F0.9°C 96% 9.0 mph W14.5 kmh W 12.0 mph19.3 kmh 29.48 in998.3 mb 0.00 in0.0 mm 0.00 in0.0 mm 0.01 in0.3 mm
08:14 AM 34.8°F1.6°C 33.8°F1.0°C 96% 7.0 mph W11.3 kmh W 11.0 mph17.7 kmh 29.48 in998.3 mb 0.00 in0.0 mm 0.00 in0.0 mm 0.01 in0.3 mm
08:13 AM 34.8°F1.6°C 33.8°F1.0°C 96% 8.0 mph W12.9 kmh W 15.0 mph24.1 kmh 29.48 in998.3 mb 0.00 in0.0 mm 0.00 in0.0 mm 0.01 in0.3 mm
08:12 AM 34.8°F1.6°C 33.8°F1.0°C 96% 11.0 mph W17.7 kmh W 15.0 mph24.1 kmh 29.48 in998.3 mb 0.00 in0.0 mm 0.00 in0.0 mm 0.01 in0.3 mm
08:11 AM 34.8°F1.6°C 33.8°F1.0°C 96% 8.0 mph W12.9 kmh W 12.0 mph19.3 kmh 29.48 in998.3 mb 0.00 in0.0 mm 0.00 in0.0 mm 0.01 in0.3 mm
08:10 AM 34.8°F1.6°C 33.8°F1.0°C 96% 7.0 mph W11.3 kmh W 12.0 mph19.3 kmh 29.48 in998.3 mb 0.00 in0.0 mm 0.00 in0.0 mm 0.01 in0.3 mm
08:09 AM 34.8°F1.6°C 33.8°F1.0°C 96% 7.0 mph W11.3 kmh W 13.0 mph20.9 kmh 29.48 in998.3 mb 0.00 in0.0 mm 0.00 in0.0 mm 0.01 in0.3 mm
08:08 AM 34.9°F1.6°C 33.9°F1.1°C 96% 8.0 mph W12.9 kmh W 13.0 mph20.9 kmh 29.48 in998.3 mb 0.00 in0.0 mm 0.00 in0.0 mm 0.01 in0.3 mm
08:07 AM 34.9°F1.6°C 33.9°F1.1°C 96% 9.0 mph W14.5 kmh W 12.0 mph19.3 kmh 29.47 in998.0 mb 0.00 in0.0 mm 0.00 in0.0 mm 0.01 in0.3 mm
08:06 AM 35.0°F1.7°C 34.0°F1.1°C 96% 9.0 mph WSW14.5 kmh WSW 12.0 mph19.3 kmh 29.48 in998.3 mb 0.00 in0.0 mm 0.00 in0.0 mm 0.01 in0.3 mm
08:05 AM 35.1°F1.7°C 34.1°F1.2°C 96% 8.0 mph W12.9 kmh W 12.0 mph19.3 kmh 29.48 in998.3 mb 0.00 in0.0 mm 0.00 in0.0 mm 0.01 in0.3 mm
08:04 AM 35.1°F1.7°C 34.1°F1.2°C 96% 6.0 mph NW9.7 kmh NW 13.0 mph20.9 kmh 29.48 in998.3 mb 0.00 in0.0 mm 0.00 in0.0 mm 0.01 in0.3 mm
08:03 AM 35.1°F1.7°C 34.1°F1.2°C 96% 10.0 mph WNW16.1 kmh WNW 13.0 mph20.9 kmh 29.48 in998.3 mb 0.00 in0.0 mm 0.00 in0.0 mm 0.01 in0.3 mm
08:02 AM 35.1°F1.7°C 34.1°F1.2°C 96% 8.0 mph WNW12.9 kmh WNW 14.0 mph22.5 kmh 29.48 in998.3 mb 0.00 in0.0 mm 0.00 in0.0 mm 0.01 in0.3 mm
08:01 AM 35.2°F1.8°C 34.2°F1.2°C 96% 8.0 mph WNW12.9 kmh WNW 14.0 mph22.5 kmh 29.48 in998.3 mb 0.00 in0.0 mm 0.00 in0.0 mm 0.01 in0.3 mm
08:00 AM 35.2°F1.8°C 34.2°F1.2°C 96% 3.0 mph W4.8 kmh W 9.0 mph14.5 kmh 29.48 in998.3 mb 0.00 in0.0 mm 0.00 in0.0 mm 0.01 in0.3 mm
07:59 AM 35.3°F1.8°C 34.3°F1.3°C 96% 6.0 mph WNW9.7 kmh WNW 9.0 mph14.5 kmh 29.48 in998.3 mb 0.00 in0.0 mm 0.00 in0.0 mm 0.01 in0.3 mm
07:58 AM 35.3°F1.8°C 34.3°F1.3°C 96% 4.0 mph NW6.4 kmh NW 12.0 mph19.3 kmh 29.48 in998.3 mb 0.00 in0.0 mm 0.00 in0.0 mm 0.01 in0.3 mm
07:57 AM 35.3°F1.8°C 34.3°F1.3°C 96% 8.0 mph NW12.9 kmh NW 12.0 mph19.3 kmh 29.48 in998.3 mb 0.00 in0.0 mm 0.00 in0.0 mm 0.01 in0.3 mm
07:56 AM 35.3°F1.8°C 34.3°F1.3°C 96% 6.0 mph NW9.7 kmh NW 10.0 mph16.1 kmh 29.48 in998.3 mb 0.00 in0.0 mm 0.00 in0.0 mm 0.01 in0.3 mm
07:55 AM 35.3°F1.8°C 34.3°F1.3°C 96% 2.0 mph NW3.2 kmh NW 8.0 mph12.9 kmh 29.48 in998.3 mb 0.01 in0.3 mm 0.00 in0.0 mm 0.01 in0.3 mm
07:54 AM 35.3°F1.8°C 34.3°F1.3°C 96% 4.0 mph W6.4 kmh W 12.0 mph19.3 kmh 29.48 in998.3 mb 0.01 in0.3 mm 0.00 in0.0 mm 0.01 in0.3 mm
07:53 AM 35.4°F1.9°C 34.4°F1.3°C 96% 8.0 mph W12.9 kmh W 12.0 mph19.3 kmh 29.48 in998.3 mb 0.01 in0.3 mm 0.00 in0.0 mm 0.01 in0.3 mm
07:52 AM 35.4°F1.9°C 34.4°F1.3°C 96% 5.0 mph WNW8.0 kmh WNW 11.0 mph17.7 kmh 29.49 in998.6 mb 0.01 in0.3 mm 0.00 in0.0 mm 0.01 in0.3 mm
07:51 AM 35.5°F1.9°C 34.5°F1.4°C 96% 8.0 mph WNW12.9 kmh WNW 11.0 mph17.7 kmh 29.49 in998.6 mb 0.01 in0.3 mm 0.00 in0.0 mm 0.01 in0.3 mm
07:50 AM 35.5°F1.9°C 34.5°F1.4°C 96% 6.0 mph NW9.7 kmh NW 11.0 mph17.7 kmh 29.49 in998.6 mb 0.01 in0.3 mm 0.00 in0.0 mm 0.01 in0.3 mm
07:49 AM 35.5°F1.9°C 34.5°F1.4°C 96% 4.0 mph NW6.4 kmh NW 8.0 mph12.9 kmh 29.49 in998.6 mb 0.01 in0.3 mm 0.00 in0.0 mm 0.01 in0.3 mm
07:48 AM 35.4°F1.9°C 34.4°F1.3°C 96% 3.0 mph NW4.8 kmh NW 8.0 mph12.9 kmh 29.49 in998.6 mb 0.01 in0.3 mm 0.00 in0.0 mm 0.01 in0.3 mm
07:47 AM 35.4°F1.9°C 34.4°F1.3°C 96% 4.0 mph NW6.4 kmh NW 8.0 mph12.9 kmh 29.49 in998.6 mb 0.01 in0.3 mm 0.00 in0.0 mm 0.01 in0.3 mm
07:46 AM 35.4°F1.9°C 34.3°F1.3°C 96% 4.0 mph NW6.4 kmh NW 8.0 mph12.9 kmh 29.48 in998.3 mb 0.01 in0.3 mm 0.00 in0.0 mm 0.01 in0.3 mm
07:45 AM 35.3°F1.8°C 34.3°F1.3°C 96% 3.0 mph WNW4.8 kmh WNW 6.0 mph9.7 kmh 29.48 in998.3 mb 0.01 in0.3 mm 0.00 in0.0 mm 0.01 in0.3 mm
07:44 AM 35.3°F1.8°C 34.3°F1.3°C 96% 2.0 mph WNW3.2 kmh WNW 9.0 mph14.5 kmh 29.48 in998.3 mb 0.01 in0.3 mm 0.00 in0.0 mm 0.01 in0.3 mm
07:43 AM 35.3°F1.8°C 34.3°F1.3°C 96% 5.0 mph WNW8.0 kmh WNW 9.0 mph14.5 kmh 29.48 in998.3 mb 0.01 in0.3 mm 0.00 in0.0 mm 0.01 in0.3 mm
07:42 AM 35.2°F1.8°C 34.2°F1.2°C 96% 4.0 mph NW6.4 kmh NW 8.0 mph12.9 kmh 29.48 in998.3 mb 0.01 in0.3 mm 0.00 in0.0 mm 0.01 in0.3 mm
07:41 AM 35.2°F1.8°C 34.2°F1.2°C 96% 6.0 mph WNW9.7 kmh WNW 10.0 mph16.1 kmh 29.48 in998.3 mb 0.01 in0.3 mm 0.00 in0.0 mm 0.01 in0.3 mm
07:40 AM 35.2°F1.8°C 34.2°F1.2°C 96% 8.0 mph W12.9 kmh W 10.0 mph16.1 kmh 29.48 in998.3 mb 0.01 in0.3 mm 0.00 in0.0 mm 0.01 in0.3 mm
07:39 AM 35.2°F1.8°C 34.2°F1.2°C 96% 6.0 mph W9.7 kmh W 10.0 mph16.1 kmh 29.48 in998.3 mb 0.01 in0.3 mm 0.00 in0.0 mm 0.01 in0.3 mm
07:38 AM 35.2°F1.8°C 34.2°F1.2°C 96% 8.0 mph WNW12.9 kmh WNW 11.0 mph17.7 kmh 29.48 in998.3 mb 0.01 in0.3 mm 0.00 in0.0 mm 0.01 in0.3 mm
07:37 AM 35.1°F1.7°C 34.1°F1.2°C 96% 9.0 mph WNW14.5 kmh WNW 11.0 mph17.7 kmh 29.47 in998.0 mb 0.01 in0.3 mm 0.00 in0.0 mm 0.01 in0.3 mm
07:36 AM 35.1°F1.7°C 34.1°F1.2°C 96% 4.0 mph WNW6.4 kmh WNW 10.0 mph16.1 kmh 29.47 in998.0 mb 0.01 in0.3 mm 0.00 in0.0 mm 0.01 in0.3 mm
07:35 AM 35.0°F1.7°C 34.0°F1.1°C 96% 6.0 mph WNW9.7 kmh WNW 10.0 mph16.1 kmh 29.47 in998.0 mb 0.01 in0.3 mm 0.00 in0.0 mm 0.01 in0.3 mm
07:34 AM 35.0°F1.7°C 34.0°F1.1°C 96% 7.0 mph WNW11.3 kmh WNW 10.0 mph16.1 kmh 29.47 in998.0 mb 0.01 in0.3 mm 0.00 in0.0 mm 0.01 in0.3 mm
07:33 AM 34.9°F1.6°C 33.9°F1.1°C 96% 4.0 mph NW6.4 kmh NW 6.0 mph9.7 kmh 29.47 in998.0 mb 0.01 in0.3 mm 0.00 in0.0 mm 0.01 in0.3 mm
07:32 AM 34.9°F1.6°C 33.9°F1.1°C 96% 3.0 mph W4.8 kmh W 6.0 mph9.7 kmh 29.47 in998.0 mb 0.01 in0.3 mm 0.00 in0.0 mm 0.01 in0.3 mm
07:31 AM 35.0°F1.7°C 33.9°F1.1°C 96% 4.0 mph W6.4 kmh W 6.0 mph9.7 kmh 29.47 in998.0 mb 0.01 in0.3 mm 0.00 in0.0 mm 0.01 in0.3 mm
07:30 AM 35.0°F1.7°C 34.0°F1.1°C 96% 4.0 mph WSW6.4 kmh WSW 8.0 mph12.9 kmh 29.47 in998.0 mb 0.01 in0.3 mm 0.00 in0.0 mm 0.01 in0.3 mm
07:29 AM 35.0°F1.7°C 34.0°F1.1°C 96% 5.0 mph WSW8.0 kmh WSW 11.0 mph17.7 kmh 29.47 in998.0 mb 0.01 in0.3 mm 0.00 in0.0 mm 0.01 in0.3 mm
07:28 AM 35.0°F1.7°C 34.0°F1.1°C 96% 9.0 mph W14.5 kmh W 11.0 mph17.7 kmh 29.47 in998.0 mb 0.01 in0.3 mm 0.00 in0.0 mm 0.01 in0.3 mm
07:27 AM 35.0°F1.7°C 34.0°F1.1°C 96% 5.0 mph WSW8.0 kmh WSW 11.0 mph17.7 kmh 29.47 in998.0 mb 0.01 in0.3 mm 0.00 in0.0 mm 0.01 in0.3 mm
07:26 AM 35.1°F1.7°C 34.1°F1.2°C 96% 9.0 mph W14.5 kmh W 11.0 mph17.7 kmh 29.46 in997.6 mb 0.01 in0.3 mm 0.00 in0.0 mm 0.01 in0.3 mm
07:25 AM 35.1°F1.7°C 34.1°F1.2°C 96% 4.0 mph SW6.4 kmh SW 9.0 mph14.5 kmh 29.46 in997.6 mb 0.01 in0.3 mm 0.00 in0.0 mm 0.01 in0.3 mm
07:24 AM 35.1°F1.7°C 34.1°F1.2°C 96% 5.0 mph WSW8.0 kmh WSW 10.0 mph16.1 kmh 29.47 in998.0 mb 0.01 in0.3 mm 0.00 in0.0 mm 0.01 in0.3 mm
07:23 AM 35.2°F1.8°C 34.2°F1.2°C 96% 8.0 mph W12.9 kmh W 10.0 mph16.1 kmh 29.47 in998.0 mb 0.01 in0.3 mm 0.00 in0.0 mm 0.01 in0.3 mm
07:22 AM 35.2°F1.8°C 34.2°F1.2°C 96% 8.0 mph W12.9 kmh W 9.0 mph14.5 kmh 29.47 in998.0 mb 0.01 in0.3 mm 0.00 in0.0 mm 0.01 in0.3 mm
07:21 AM 35.2°F1.8°C 34.2°F1.2°C 96% 7.0 mph WSW11.3 kmh WSW 11.0 mph17.7 kmh 29.47 in998.0 mb 0.01 in0.3 mm 0.00 in0.0 mm 0.01 in0.3 mm
07:20 AM 35.3°F1.8°C 34.2°F1.2°C 96% 8.0 mph W12.9 kmh W 11.0 mph17.7 kmh 29.46 in997.6 mb 0.01 in0.3 mm 0.00 in0.0 mm 0.01 in0.3 mm
07:19 AM 35.3°F1.8°C 34.2°F1.2°C 96% 7.0 mph WNW11.3 kmh WNW 10.0 mph16.1 kmh 29.46 in997.6 mb 0.01 in0.3 mm 0.00 in0.0 mm 0.01 in0.3 mm
07:18 AM 35.2°F1.8°C 34.2°F1.2°C 96% 2.0 mph NW3.2 kmh NW 6.0 mph9.7 kmh 29.46 in997.6 mb 0.01 in0.3 mm 0.00 in0.0 mm 0.01 in0.3 mm
07:17 AM 35.2°F1.8°C 34.2°F1.2°C 96% 3.0 mph WNW4.8 kmh WNW 6.0 mph9.7 kmh 29.46 in997.6 mb 0.01 in0.3 mm 0.00 in0.0 mm 0.01 in0.3 mm
07:16 AM 35.2°F1.8°C 34.2°F1.2°C 96% 4.0 mph W6.4 kmh W 6.0 mph9.7 kmh 29.46 in997.6 mb 0.01 in0.3 mm 0.00 in0.0 mm 0.01 in0.3 mm
07:15 AM 35.2°F1.8°C 34.2°F1.2°C 96% 3.0 mph WNW4.8 kmh WNW 5.0 mph8.0 kmh 29.47 in998.0 mb 0.01 in0.3 mm 0.00 in0.0 mm 0.01 in0.3 mm
07:14 AM 35.2°F1.8°C 34.2°F1.2°C 96% 1.0 mph WSW1.6 kmh WSW 8.0 mph12.9 kmh 29.46 in997.6 mb 0.01 in0.3 mm 0.00 in0.0 mm 0.01 in0.3 mm
07:13 AM 35.2°F1.8°C 34.2°F1.2°C 96% 5.0 mph SW8.0 kmh SW 8.0 mph12.9 kmh 29.46 in997.6 mb 0.01 in0.3 mm 0.00 in0.0 mm 0.01 in0.3 mm
07:12 AM 35.2°F1.8°C 34.2°F1.2°C 96% 5.0 mph WSW8.0 kmh WSW 8.0 mph12.9 kmh 29.47 in998.0 mb 0.01 in0.3 mm 0.00 in0.0 mm 0.01 in0.3 mm
07:11 AM 35.3°F1.8°C 34.2°F1.2°C 96% 5.0 mph SW8.0 kmh SW 15.0 mph24.1 kmh 29.47 in998.0 mb 0.01 in0.3 mm 0.00 in0.0 mm 0.01 in0.3 mm
07:10 AM 35.3°F1.8°C 34.3°F1.3°C 96% 11.0 mph SW17.7 kmh SW 15.0 mph24.1 kmh 29.47 in998.0 mb 0.01 in0.3 mm 0.00 in0.0 mm 0.01 in0.3 mm
07:09 AM 35.3°F1.8°C 34.3°F1.3°C 96% 10.0 mph WSW16.1 kmh WSW 13.0 mph20.9 kmh 29.47 in998.0 mb 0.01 in0.3 mm 0.00 in0.0 mm 0.01 in0.3 mm
07:08 AM 35.3°F1.8°C 34.3°F1.3°C 96% 6.0 mph WSW9.7 kmh WSW 12.0 mph19.3 kmh 29.47 in998.0 mb 0.01 in0.3 mm 0.00 in0.0 mm 0.01 in0.3 mm
07:07 AM 35.4°F1.9°C 34.3°F1.3°C 96% 7.0 mph W11.3 kmh W 13.0 mph20.9 kmh 29.47 in998.0 mb 0.01 in0.3 mm 0.00 in0.0 mm 0.01 in0.3 mm
07:06 AM 35.4°F1.9°C 34.4°F1.3°C 96% 9.0 mph W14.5 kmh W 13.0 mph20.9 kmh 29.48 in998.3 mb 0.01 in0.3 mm 0.00 in0.0 mm 0.01 in0.3 mm
07:05 AM 35.4°F1.9°C 34.4°F1.3°C 96% 9.0 mph W14.5 kmh W 14.0 mph22.5 kmh 29.47 in998.0 mb 0.01 in0.3 mm 0.00 in0.0 mm 0.01 in0.3 mm
07:04 AM 35.4°F1.9°C 34.4°F1.3°C 96% 9.0 mph SW14.5 kmh SW 14.0 mph22.5 kmh 29.46 in997.6 mb 0.01 in0.3 mm 0.00 in0.0 mm 0.01 in0.3 mm
07:03 AM 35.4°F1.9°C 34.4°F1.3°C 96% 7.0 mph SW11.3 kmh SW 12.0 mph19.3 kmh 29.46 in997.6 mb 0.01 in0.3 mm 0.00 in0.0 mm 0.01 in0.3 mm
07:02 AM 35.4°F1.9°C 34.4°F1.3°C 96% 8.0 mph SW12.9 kmh SW 12.0 mph19.3 kmh 29.47 in998.0 mb 0.01 in0.3 mm 0.00 in0.0 mm 0.01 in0.3 mm
07:01 AM 35.5°F1.9°C 34.4°F1.3°C 96% 8.0 mph WSW12.9 kmh WSW 13.0 mph20.9 kmh 29.47 in998.0 mb 0.01 in0.3 mm 0.00 in0.0 mm 0.01 in0.3 mm
07:00 AM 35.5°F1.9°C 34.5°F1.4°C 96% 10.0 mph WSW16.1 kmh WSW 13.0 mph20.9 kmh 29.48 in998.3 mb 0.01 in0.3 mm 0.00 in0.0 mm 0.01 in0.3 mm
06:59 AM 35.5°F1.9°C 34.5°F1.4°C 96% 8.0 mph WSW12.9 kmh WSW 12.0 mph19.3 kmh 29.47 in998.0 mb 0.01 in0.3 mm 0.00 in0.0 mm 0.01 in0.3 mm
06:58 AM 35.5°F1.9°C 34.5°F1.4°C 96% 6.0 mph WSW9.7 kmh WSW 9.0 mph14.5 kmh 29.47 in998.0 mb 0.01 in0.3 mm 0.00 in0.0 mm 0.01 in0.3 mm
06:57 AM 35.5°F1.9°C 34.5°F1.4°C 96% 6.0 mph WSW9.7 kmh WSW 10.0 mph16.1 kmh 29.47 in998.0 mb 0.01 in0.3 mm 0.00 in0.0 mm 0.01 in0.3 mm
06:56 AM 35.5°F1.9°C 34.5°F1.4°C 96% 8.0 mph WSW12.9 kmh WSW 10.0 mph16.1 kmh 29.47 in998.0 mb 0.01 in0.3 mm 0.60 in15.2 mm 0.01 in0.3 mm
06:55 AM 35.5°F1.9°C 34.4°F1.3°C 96% 8.0 mph WSW12.9 kmh WSW 11.0 mph17.7 kmh 29.46 in997.6 mb 0.00 in0.0 mm 0.00 in0.0 mm 0.00 in0.0 mm
06:54 AM 35.5°F1.9°C 34.5°F1.4°C 96% 9.0 mph SW14.5 kmh SW 12.0 mph19.3 kmh 29.46 in997.6 mb 0.00 in0.0 mm 0.00 in0.0 mm 0.00 in0.0 mm
06:53 AM 35.5°F1.9°C 34.5°F1.4°C 96% 8.0 mph SW12.9 kmh SW 12.0 mph19.3 kmh 29.46 in997.6 mb 0.00 in0.0 mm 0.00 in0.0 mm 0.00 in0.0 mm
06:52 AM 35.5°F1.9°C 34.5°F1.4°C 96% 6.0 mph SW9.7 kmh SW 10.0 mph16.1 kmh 29.46 in997.6 mb 0.00 in0.0 mm 0.00 in0.0 mm 0.00 in0.0 mm
06:51 AM 35.5°F1.9°C 34.5°F1.4°C 96% 5.0 mph SW8.0 kmh SW 8.0 mph12.9 kmh 29.46 in997.6 mb 0.00 in0.0 mm 0.00 in0.0 mm 0.00 in0.0 mm
06:50 AM 35.5°F1.9°C 34.5°F1.4°C 96% 5.0 mph WSW8.0 kmh WSW 9.0 mph14.5 kmh 29.46 in997.6 mb 0.00 in0.0 mm 0.00 in0.0 mm 0.00 in0.0 mm
06:49 AM 35.5°F1.9°C 34.5°F1.4°C 96% 6.0 mph WSW9.7 kmh WSW 10.0 mph16.1 kmh 29.46 in997.6 mb 0.00 in0.0 mm 0.00 in0.0 mm 0.00 in0.0 mm
06:48 AM 35.5°F1.9°C 34.5°F1.4°C 96% 7.0 mph SW11.3 kmh SW 10.0 mph16.1 kmh 29.46 in997.6 mb 0.00 in0.0 mm 0.00 in0.0 mm 0.00 in0.0 mm
06:47 AM 35.5°F1.9°C 34.5°F1.4°C 96% 9.0 mph WSW14.5 kmh WSW 10.0 mph16.1 kmh 29.46 in997.6 mb 0.00 in0.0 mm 0.00 in0.0 mm 0.00 in0.0 mm
06:46 AM 35.4°F1.9°C 34.4°F1.3°C 96% 5.0 mph SW8.0 kmh SW 9.0 mph14.5 kmh 29.46 in997.6 mb 0.00 in0.0 mm 0.00 in0.0 mm 0.00 in0.0 mm
06:45 AM 35.4°F1.9°C 34.4°F1.3°C 96% 6.0 mph WSW9.7 kmh WSW 8.0 mph12.9 kmh 29.46 in997.6 mb 0.00 in0.0 mm 0.00 in0.0 mm 0.00 in0.0 mm
06:44 AM 35.4°F1.9°C 34.4°F1.3°C 96% 6.0 mph WSW9.7 kmh WSW 8.0 mph12.9 kmh 29.46 in997.6 mb 0.00 in0.0 mm 0.00 in0.0 mm 0.00 in0.0 mm
06:43 AM 35.4°F1.9°C 34.4°F1.3°C 96% 6.0 mph SW9.7 kmh SW 8.0 mph12.9 kmh 29.45 in997.3 mb 0.00 in0.0 mm 0.00 in0.0 mm 0.00 in0.0 mm
06:42 AM 35.4°F1.9°C 34.4°F1.3°C 96% 3.0 mph SSW4.8 kmh SSW 7.0 mph11.3 kmh 29.45 in997.3 mb 0.00 in0.0 mm 0.00 in0.0 mm 0.00 in0.0 mm
06:41 AM 35.4°F1.9°C 34.4°F1.3°C 96% 5.0 mph SW8.0 kmh SW 7.0 mph11.3 kmh 29.45 in997.3 mb 0.00 in0.0 mm 0.00 in0.0 mm 0.00 in0.0 mm
06:40 AM 35.4°F1.9°C 34.4°F1.3°C 96% 4.0 mph SW6.4 kmh SW 7.0 mph11.3 kmh 29.46 in997.6 mb 0.00 in0.0 mm 0.00 in0.0 mm 0.00 in0.0 mm
06:39 AM 35.4°F1.9°C 34.4°F1.3°C 96% 6.0 mph WSW9.7 kmh WSW 9.0 mph14.5 kmh 29.46 in997.6 mb 0.00 in0.0 mm 0.00 in0.0 mm 0.00 in0.0 mm
06:38 AM 35.3°F1.8°C 34.3°F1.3°C 96% 7.0 mph SW11.3 kmh SW 9.0 mph14.5 kmh 29.45 in997.3 mb 0.00 in0.0 mm 0.00 in0.0 mm 0.00 in0.0 mm
06:37 AM 35.3°F1.8°C 34.3°F1.3°C 96% 7.0 mph SW11.3 kmh SW 9.0 mph14.5 kmh 29.45 in997.3 mb 0.00 in0.0 mm 0.00 in0.0 mm 0.00 in0.0 mm
06:36 AM 35.3°F1.8°C 34.3°F1.3°C 96% 4.0 mph SW6.4 kmh SW 8.0 mph12.9 kmh 29.45 in997.3 mb 0.00 in0.0 mm 0.00 in0.0 mm 0.00 in0.0 mm
06:35 AM 35.3°F1.8°C 34.3°F1.3°C 96% 6.0 mph WSW9.7 kmh WSW 9.0 mph14.5 kmh 29.46 in997.6 mb 0.00 in0.0 mm 0.00 in0.0 mm 0.00 in0.0 mm
06:34 AM 35.3°F1.8°C 34.3°F1.3°C 96% 5.0 mph WSW8.0 kmh WSW 9.0 mph14.5 kmh 29.45 in997.3 mb 0.00 in0.0 mm 0.00 in0.0 mm 0.00 in0.0 mm
06:33 AM 35.3°F1.8°C 34.2°F1.2°C 96% 6.0 mph SW9.7 kmh SW 8.0 mph12.9 kmh 29.45 in997.3 mb 0.00 in0.0 mm 0.00 in0.0 mm 0.00 in0.0 mm
06:32 AM 35.2°F1.8°C 34.2°F1.2°C 96% 5.0 mph SW8.0 kmh SW 7.0 mph11.3 kmh 29.45 in997.3 mb 0.00 in0.0 mm 0.00 in0.0 mm 0.00 in0.0 mm
06:31 AM 35.2°F1.8°C 34.2°F1.2°C 96% 4.0 mph SW6.4 kmh SW 7.0 mph11.3 kmh 29.45 in997.3 mb 0.00 in0.0 mm 0.00 in0.0 mm 0.00 in0.0 mm
06:30 AM 35.2°F1.8°C 34.2°F1.2°C 96% 6.0 mph SW9.7 kmh SW 8.0 mph12.9 kmh 29.45 in997.3 mb 0.00 in0.0 mm 0.00 in0.0 mm 0.00 in0.0 mm
06:29 AM 35.2°F1.8°C 34.2°F1.2°C 96% 7.0 mph SSW11.3 kmh SSW 8.0 mph12.9 kmh 29.44 in997.0 mb 0.00 in0.0 mm 0.00 in0.0 mm 0.00 in0.0 mm
06:28 AM 35.2°F1.8°C 34.2°F1.2°C 96% 7.0 mph SSW11.3 kmh SSW 8.0 mph12.9 kmh 29.44 in997.0 mb 0.00 in0.0 mm 0.00 in0.0 mm 0.00 in0.0 mm
06:27 AM 35.2°F1.8°C 34.2°F1.2°C 96% 4.0 mph SW6.4 kmh SW 7.0 mph11.3 kmh 29.44 in997.0 mb 0.00 in0.0 mm 0.00 in0.0 mm 0.00 in0.0 mm
06:26 AM 35.2°F1.8°C 34.2°F1.2°C 96% 3.0 mph SW4.8 kmh SW 7.0 mph11.3 kmh 29.44 in997.0 mb 0.00 in0.0 mm 0.00 in0.0 mm 0.00 in0.0 mm
06:25 AM 35.3°F1.8°C 34.3°F1.3°C 96% 5.0 mph SSW8.0 kmh SSW 7.0 mph11.3 kmh 29.44 in997.0 mb 0.00 in0.0 mm 0.00 in0.0 mm 0.00 in0.0 mm
06:24 AM 35.3°F1.8°C 34.3°F1.3°C 96% 4.0 mph SSW6.4 kmh SSW 6.0 mph9.7 kmh 29.44 in997.0 mb 0.00 in0.0 mm 0.00 in0.0 mm 0.00 in0.0 mm
06:23 AM 35.3°F1.8°C 34.3°F1.3°C 96% 4.0 mph SW6.4 kmh SW 7.0 mph11.3 kmh 29.44 in997.0 mb 0.00 in0.0 mm 0.00 in0.0 mm 0.00 in0.0 mm
06:22 AM 35.3°F1.8°C 34.3°F1.3°C 96% 5.0 mph SW8.0 kmh SW 7.0 mph11.3 kmh 29.44 in997.0 mb 0.00 in0.0 mm 0.00 in0.0 mm 0.00 in0.0 mm
06:21 AM 35.3°F1.8°C 34.3°F1.3°C 96% 5.0 mph SSW8.0 kmh SSW 6.0 mph9.7 kmh 29.44 in997.0 mb 0.00 in0.0 mm 0.00 in0.0 mm 0.00 in0.0 mm
06:20 AM 35.3°F1.8°C 34.3°F1.3°C 96% 5.0 mph SSW8.0 kmh SSW 6.0 mph9.7 kmh 29.45 in997.3 mb 0.00 in0.0 mm 0.00 in0.0 mm 0.00 in0.0 mm
06:19 AM 35.3°F1.8°C 34.3°F1.3°C 96% 5.0 mph SW8.0 kmh SW 6.0 mph9.7 kmh 29.45 in997.3 mb 0.00 in0.0 mm 0.00 in0.0 mm 0.00 in0.0 mm
06:18 AM 35.3°F1.8°C 34.3°F1.3°C 96% 4.0 mph SSW6.4 kmh SSW 6.0 mph9.7 kmh 29.44 in997.0 mb 0.00 in0.0 mm 0.00 in0.0 mm 0.00 in0.0 mm
06:17 AM 35.3°F1.8°C 34.3°F1.3°C 96% 5.0 mph SSW8.0 kmh SSW 6.0 mph9.7 kmh 29.44 in997.0 mb 0.00 in0.0 mm 0.00 in0.0 mm 0.00 in0.0 mm
06:16 AM 35.3°F1.8°C 34.3°F1.3°C 96% 3.0 mph SSW4.8 kmh SSW 4.0 mph6.4 kmh 29.44 in997.0 mb 0.00 in0.0 mm 0.00 in0.0 mm 0.00 in0.0 mm
06:15 AM 35.3°F1.8°C 34.3°F1.3°C 96% 2.0 mph SW3.2 kmh SW 5.0 mph8.0 kmh 29.44 in997.0 mb 0.00 in0.0 mm 0.00 in0.0 mm 0.00 in0.0 mm
06:14 AM 35.3°F1.8°C 34.3°F1.3°C 96% 4.0 mph SW6.4 kmh SW 5.0 mph8.0 kmh 29.44 in997.0 mb 0.00 in0.0 mm 0.00 in0.0 mm 0.00 in0.0 mm
06:13 AM 35.4°F1.9°C 34.3°F1.3°C 96% 3.0 mph SW4.8 kmh SW 4.0 mph6.4 kmh 29.44 in997.0 mb 0.00 in0.0 mm 0.00 in0.0 mm 0.00 in0.0 mm
06:12 AM 35.4°F1.9°C 34.4°F1.3°C 96% 2.0 mph SW3.2 kmh SW 4.0 mph6.4 kmh 29.44 in997.0 mb 0.00 in0.0 mm 0.00 in0.0 mm 0.00 in0.0 mm
06:11 AM 35.4°F1.9°C 34.4°F1.3°C 96% 2.0 mph SW3.2 kmh SW 4.0 mph6.4 kmh 29.44 in997.0 mb 0.00 in0.0 mm 0.00 in0.0 mm 0.00 in0.0 mm
06:10 AM 35.4°F1.9°C 34.4°F1.3°C 96% 3.0 mph WSW4.8 kmh WSW 4.0 mph6.4 kmh 29.45 in997.3 mb 0.00 in0.0 mm 0.00 in0.0 mm 0.00 in0.0 mm
06:09 AM 35.4°F1.9°C 34.4°F1.3°C 96% 2.0 mph WNW3.2 kmh WNW 4.0 mph6.4 kmh 29.44 in997.0 mb 0.00 in0.0 mm 0.00 in0.0 mm 0.00 in0.0 mm
06:08 AM 35.3°F1.8°C 34.3°F1.3°C 96% Calm Calm 3.0 mph4.8 kmh 29.45 in997.3 mb 0.00 in0.0 mm 0.00 in0.0 mm 0.00 in0.0 mm
06:07 AM 35.3°F1.8°C 34.3°F1.3°C 96% 1.0 mph WNW1.6 kmh WNW 3.0 mph4.8 kmh 29.44 in997.0 mb 0.00 in0.0 mm 0.00 in0.0 mm 0.00 in0.0 mm
06:06 AM 35.3°F1.8°C 34.3°F1.3°C 96% 1.0 mph W1.6 kmh W 3.0 mph4.8 kmh 29.44 in997.0 mb 0.00 in0.0 mm 0.00 in0.0 mm 0.00 in0.0 mm
06:05 AM 35.3°F1.8°C 34.3°F1.3°C 96% 1.0 mph WSW1.6 kmh WSW 3.0 mph4.8 kmh 29.44 in997.0 mb 0.00 in0.0 mm 0.00 in0.0 mm 0.00 in0.0 mm
06:04 AM 35.3°F1.8°C 34.3°F1.3°C 96% 2.0 mph WSW3.2 kmh WSW 3.0 mph4.8 kmh 29.44 in997.0 mb 0.00 in0.0 mm 0.00 in0.0 mm 0.00 in0.0 mm
06:03 AM 35.3°F1.8°C 34.3°F1.3°C 96% Calm Calm 4.0 mph6.4 kmh 29.44 in997.0 mb 0.00 in0.0 mm 0.00 in0.0 mm 0.00 in0.0 mm
06:02 AM 35.3°F1.8°C 34.3°F1.3°C 96% 2.0 mph SW3.2 kmh SW 5.0 mph8.0 kmh 29.44 in997.0 mb 0.00 in0.0 mm 0.00 in0.0 mm 0.00 in0.0 mm
06:01 AM 35.3°F1.8°C 34.3°F1.3°C 96% 4.0 mph SW6.4 kmh SW 5.0 mph8.0 kmh 29.44 in997.0 mb 0.00 in0.0 mm 0.00 in0.0 mm 0.00 in0.0 mm
06:00 AM 35.4°F1.9°C 34.4°F1.3°C 96% 2.0 mph SW3.2 kmh SW 4.0 mph6.4 kmh 29.44 in997.0 mb 0.00 in0.0 mm 0.00 in0.0 mm 0.00 in0.0 mm
05:59 AM 35.4°F1.9°C 34.4°F1.3°C 96% 1.0 mph SW1.6 kmh SW 3.0 mph4.8 kmh 29.44 in997.0 mb 0.00 in0.0 mm 0.00 in0.0 mm 0.00 in0.0 mm
05:58 AM 35.4°F1.9°C 34.4°F1.3°C 96% 1.0 mph SW1.6 kmh SW 3.0 mph4.8 kmh 29.44 in997.0 mb 0.00 in0.0 mm 0.00 in0.0 mm 0.00 in0.0 mm
05:57 AM 35.4°F1.9°C 34.4°F1.3°C 96% 1.0 mph SW1.6 kmh SW 4.0 mph6.4 kmh 29.44 in997.0 mb 0.00 in0.0 mm 0.00 in0.0 mm 0.00 in0.0 mm
05:56 AM 35.4°F1.9°C 34.4°F1.3°C 96% 3.0 mph S4.8 kmh S 5.0 mph8.0 kmh 29.44 in997.0 mb 0.00 in0.0 mm 0.00 in0.0 mm 0.00 in0.0 mm
05:55 AM 35.4°F1.9°C 34.4°F1.3°C 96% 4.0 mph SW6.4 kmh SW 6.0 mph9.7 kmh 29.44 in997.0 mb 0.00 in0.0 mm 0.00 in0.0 mm 0.00 in0.0 mm
05:54 AM 35.4°F1.9°C 34.4°F1.3°C 96% 5.0 mph SW8.0 kmh SW 6.0 mph9.7 kmh 29.45 in997.3 mb 0.00 in0.0 mm 0.00 in0.0 mm 0.00 in0.0 mm
05:53 AM 35.4°F1.9°C 34.4°F1.3°C 96% 4.0 mph SW6.4 kmh SW 7.0 mph11.3 kmh 29.45 in997.3 mb 0.00 in0.0 mm 0.00 in0.0 mm 0.00 in0.0 mm
05:52 AM 35.4°F1.9°C 34.4°F1.3°C 96% 4.0 mph SSW6.4 kmh SSW 7.0 mph11.3 kmh 29.45 in997.3 mb 0.00 in0.0 mm 0.00 in0.0 mm 0.00 in0.0 mm
05:51 AM 35.4°F1.9°C 34.4°F1.3°C 96% 4.0 mph S6.4 kmh S 6.0 mph9.7 kmh 29.45 in997.3 mb 0.00 in0.0 mm 0.00 in0.0 mm 0.00 in0.0 mm
05:50 AM 35.4°F1.9°C 34.4°F1.3°C 96% 2.0 mph SSW3.2 kmh SSW 4.0 mph6.4 kmh 29.45 in997.3 mb 0.00 in0.0 mm 0.00 in0.0 mm 0.00 in0.0 mm
05:49 AM 35.4°F1.9°C 34.4°F1.3°C 96% 3.0 mph SW4.8 kmh SW 4.0 mph6.4 kmh 29.45 in997.3 mb 0.00 in0.0 mm 0.00 in0.0 mm 0.00 in0.0 mm
05:48 AM 35.4°F1.9°C 34.4°F1.3°C 96% 1.0 mph W1.6 kmh W 2.0 mph3.2 kmh 29.45 in997.3 mb 0.00 in0.0 mm 0.00 in0.0 mm 0.00 in0.0 mm
05:47 AM 35.4°F1.9°C 34.4°F1.3°C 96% 1.0 mph W1.6 kmh W 2.0 mph3.2 kmh 29.45 in997.3 mb 0.00 in0.0 mm 0.00 in0.0 mm 0.00 in0.0 mm
05:46 AM 35.4°F1.9°C 34.4°F1.3°C 96% 1.0 mph W1.6 kmh W 2.0 mph3.2 kmh 29.45 in997.3 mb 0.00 in0.0 mm 0.00 in0.0 mm 0.00 in0.0 mm
05:45 AM 35.4°F1.9°C 34.4°F1.3°C 96% 1.0 mph S1.6 kmh S 6.0 mph9.7 kmh 29.45 in997.3 mb 0.00 in0.0 mm 0.00 in0.0 mm 0.00 in0.0 mm
05:44 AM 35.4°F1.9°C 34.4°F1.3°C 96% 4.0 mph S6.4 kmh S 6.0 mph9.7 kmh 29.45 in997.3 mb 0.00 in0.0 mm 0.00 in0.0 mm 0.00 in0.0 mm
05:43 AM 35.4°F1.9°C 34.4°F1.3°C 96% 4.0 mph S6.4 kmh S 7.0 mph11.3 kmh 29.44 in997.0 mb 0.00 in0.0 mm 0.00 in0.0 mm 0.00 in0.0 mm
05:42 AM 35.4°F1.9°C 34.4°F1.3°C 96% 5.0 mph SSW8.0 kmh SSW 8.0 mph12.9 kmh 29.44 in997.0 mb 0.00 in0.0 mm 0.00 in0.0 mm 0.00 in0.0 mm
05:41 AM 35.4°F1.9°C 34.4°F1.3°C 96% 6.0 mph SSW9.7 kmh SSW 8.0 mph12.9 kmh 29.45 in997.3 mb 0.00 in0.0 mm 0.00 in0.0 mm 0.00 in0.0 mm
05:40 AM 35.4°F1.9°C 34.4°F1.3°C 96% 5.0 mph SW8.0 kmh SW 7.0 mph11.3 kmh 29.45 in997.3 mb 0.00 in0.0 mm 0.00 in0.0 mm 0.00 in0.0 mm
05:39 AM 35.4°F1.9°C 34.4°F1.3°C 96% 5.0 mph SW8.0 kmh SW 7.0 mph11.3 kmh 29.46 in997.6 mb 0.00 in0.0 mm 0.00 in0.0 mm 0.00 in0.0 mm
05:38 AM 35.4°F1.9°C 34.4°F1.3°C 96% 5.0 mph WSW8.0 kmh WSW 7.0 mph11.3 kmh 29.46 in997.6 mb 0.00 in0.0 mm 0.00 in0.0 mm 0.00 in0.0 mm
05:37 AM 35.4°F1.9°C 34.4°F1.3°C 96% 4.0 mph W6.4 kmh W 7.0 mph11.3 kmh 29.45 in997.3 mb 0.00 in0.0 mm 0.00 in0.0 mm 0.00 in0.0 mm
05:36 AM 35.5°F1.9°C 34.4°F1.3°C 96% 5.0 mph WSW8.0 kmh WSW 8.0 mph12.9 kmh 29.45 in997.3 mb 0.00 in0.0 mm 0.00 in0.0 mm 0.00 in0.0 mm
05:35 AM 35.5°F1.9°C 34.5°F1.4°C 96% 6.0 mph SW9.7 kmh SW 8.0 mph12.9 kmh 29.45 in997.3 mb 0.00 in0.0 mm 0.00 in0.0 mm 0.00 in0.0 mm
05:34 AM 35.5°F1.9°C 34.5°F1.4°C 96% 4.0 mph SW6.4 kmh SW 7.0 mph11.3 kmh 29.46 in997.6 mb 0.00 in0.0 mm 0.00 in0.0 mm 0.00 in0.0 mm
05:33 AM 35.5°F1.9°C 34.5°F1.4°C 96% 4.0 mph SW6.4 kmh SW 7.0 mph11.3 kmh 29.46 in997.6 mb 0.00 in0.0 mm 0.00 in0.0 mm 0.00 in0.0 mm
05:32 AM 35.5°F1.9°C 34.5°F1.4°C 96% 5.0 mph SW8.0 kmh SW 6.0 mph9.7 kmh 29.45 in997.3 mb 0.00 in0.0 mm 0.00 in0.0 mm 0.00 in0.0 mm
05:31 AM 35.5°F1.9°C 34.5°F1.4°C 96% 2.0 mph SW3.2 kmh SW 4.0 mph6.4 kmh 29.45 in997.3 mb 0.00 in0.0 mm 0.00 in0.0 mm 0.00 in0.0 mm
05:30 AM 35.5°F1.9°C 34.5°F1.4°C 96% 1.0 mph SW1.6 kmh SW 2.0 mph3.2 kmh 29.45 in997.3 mb 0.00 in0.0 mm 0.00 in0.0 mm 0.00 in0.0 mm
05:29 AM 35.5°F1.9°C 34.5°F1.4°C 96% Calm Calm 2.0 mph3.2 kmh 29.44 in997.0 mb 0.00 in0.0 mm 0.00 in0.0 mm 0.00 in0.0 mm
05:28 AM 35.5°F1.9°C 34.5°F1.4°C 96% 1.0 mph SW1.6 kmh SW 4.0 mph6.4 kmh 29.45 in997.3 mb 0.00 in0.0 mm 0.00 in0.0 mm 0.00 in0.0 mm
05:27 AM 35.5°F1.9°C 34.5°F1.4°C 96% 3.0 mph S4.8 kmh S 5.0 mph8.0 kmh 29.45 in997.3 mb 0.00 in0.0 mm 0.00 in0.0 mm 0.00 in0.0 mm
05:26 AM 35.5°F1.9°C 34.5°F1.4°C 96% 3.0 mph SSW4.8 kmh SSW 6.0 mph9.7 kmh 29.45 in997.3 mb 0.00 in0.0 mm 0.00 in0.0 mm 0.00 in0.0 mm
05:25 AM 35.5°F1.9°C 34.5°F1.4°C 96% 4.0 mph SW6.4 kmh SW 6.0 mph9.7 kmh 29.45 in997.3 mb 0.00 in0.0 mm 0.00 in0.0 mm 0.00 in0.0 mm
05:24 AM 35.4°F1.9°C 34.4°F1.3°C 96% 2.0 mph WSW3.2 kmh WSW 5.0 mph8.0 kmh 29.45 in997.3 mb 0.00 in0.0 mm 0.00 in0.0 mm 0.00 in0.0 mm
05:23 AM 35.4°F1.9°C 34.4°F1.3°C 96% 3.0 mph SSW4.8 kmh SSW 8.0 mph12.9 kmh 29.45 in997.3 mb 0.00 in0.0 mm 0.00 in0.0 mm 0.00 in0.0 mm
05:22 AM 35.4°F1.9°C 34.4°F1.3°C 96% 6.0 mph WSW9.7 kmh WSW 8.0 mph12.9 kmh 29.45 in997.3 mb 0.00 in0.0 mm 0.00 in0.0 mm 0.00 in0.0 mm
05:21 AM 35.4°F1.9°C 34.4°F1.3°C 96% 7.0 mph SW11.3 kmh SW 8.0 mph12.9 kmh 29.45 in997.3 mb 0.00 in0.0 mm 0.00 in0.0 mm 0.00 in0.0 mm
05:20 AM 35.4°F1.9°C 34.4°F1.3°C 96% 6.0 mph SW9.7 kmh SW 7.0 mph11.3 kmh 29.45 in997.3 mb 0.00 in0.0 mm 0.00 in0.0 mm 0.00 in0.0 mm
05:19 AM 35.5°F1.9°C 34.4°F1.3°C 96% 6.0 mph SSW9.7 kmh SSW 7.0 mph11.3 kmh 29.45 in997.3 mb 0.00 in0.0 mm 0.00 in0.0 mm 0.00 in0.0 mm
05:18 AM 35.5°F1.9°C 34.5°F1.4°C 96% 6.0 mph SSW9.7 kmh SSW 7.0 mph11.3 kmh 29.45 in997.3 mb 0.00 in0.0 mm 0.00 in0.0 mm 0.00 in0.0 mm
05:17 AM 35.5°F1.9°C 34.5°F1.4°C 96% 6.0 mph SW9.7 kmh SW 6.0 mph9.7 kmh 29.45 in997.3 mb 0.00 in0.0 mm 0.00 in0.0 mm 0.00 in0.0 mm
05:16 AM 35.5°F1.9°C 34.5°F1.4°C 96% 3.0 mph SW4.8 kmh SW 5.0 mph8.0 kmh 29.45 in997.3 mb 0.00 in0.0 mm 0.00 in0.0 mm 0.00 in0.0 mm
05:15 AM 35.5°F1.9°C 34.5°F1.4°C 96% 2.0 mph SW3.2 kmh SW 9.0 mph14.5 kmh 29.45 in997.3 mb 0.00 in0.0 mm 0.00 in0.0 mm 0.00 in0.0 mm
05:14 AM 35.5°F1.9°C 34.5°F1.4°C 96% 6.0 mph SW9.7 kmh SW 9.0 mph14.5 kmh 29.46 in997.6 mb 0.00 in0.0 mm 0.00 in0.0 mm 0.00 in0.0 mm
05:13 AM 35.6°F2.0°C 34.5°F1.4°C 96% 7.0 mph SW11.3 kmh SW 9.0 mph14.5 kmh 29.46 in997.6 mb 0.00 in0.0 mm 0.00 in0.0 mm 0.00 in0.0 mm
05:12 AM 35.6°F2.0°C 34.6°F1.4°C 96% 5.0 mph SW8.0 kmh SW 7.0 mph11.3 kmh 29.45 in997.3 mb 0.00 in0.0 mm 0.00 in0.0 mm 0.00 in0.0 mm
05:11 AM 35.6°F2.0°C 34.6°F1.4°C 96% 2.0 mph SSW3.2 kmh SSW 4.0 mph6.4 kmh 29.45 in997.3 mb 0.00 in0.0 mm 0.00 in0.0 mm 0.00 in0.0 mm
05:10 AM 35.6°F2.0°C 34.6°F1.4°C 96% 1.0 mph S1.6 kmh S 5.0 mph8.0 kmh 29.45 in997.3 mb 0.00 in0.0 mm 0.00 in0.0 mm 0.00 in0.0 mm
05:09 AM 35.6°F2.0°C 34.6°F1.4°C 96% 4.0 mph S6.4 kmh S 6.0 mph9.7 kmh 29.46 in997.6 mb 0.00 in0.0 mm 0.00 in0.0 mm 0.00 in0.0 mm
05:08 AM 35.7°F2.1°C 34.7°F1.5°C 96% 5.0 mph SW8.0 kmh SW 6.0 mph9.7 kmh 29.46 in997.6 mb 0.00 in0.0 mm 0.00 in0.0 mm 0.00 in0.0 mm
05:07 AM 35.7°F2.1°C 34.7°F1.5°C 96% 4.0 mph SW6.4 kmh SW 6.0 mph9.7 kmh 29.45 in997.3 mb 0.00 in0.0 mm 0.00 in0.0 mm 0.00 in0.0 mm
05:06 AM 35.7°F2.1°C 34.7°F1.5°C 96% 1.0 mph SE1.6 kmh SE 3.0 mph4.8 kmh 29.45 in997.3 mb 0.00 in0.0 mm 0.00 in0.0 mm 0.00 in0.0 mm
05:05 AM 35.7°F2.1°C 34.7°F1.5°C 96% 1.0 mph SE1.6 kmh SE 4.0 mph6.4 kmh 29.44 in997.0 mb 0.00 in0.0 mm 0.00 in0.0 mm 0.00 in0.0 mm
05:04 AM 35.7°F2.1°C 34.7°F1.5°C 96% 2.0 mph SSE3.2 kmh SSE 4.0 mph6.4 kmh 29.44 in997.0 mb 0.00 in0.0 mm 0.00 in0.0 mm 0.00 in0.0 mm
05:03 AM 35.7°F2.1°C 34.7°F1.5°C 96% 2.0 mph S3.2 kmh S 6.0 mph9.7 kmh 29.45 in997.3 mb 0.00 in0.0 mm 0.00 in0.0 mm 0.00 in0.0 mm
05:02 AM 35.8°F2.1°C 34.8°F1.6°C 96% 5.0 mph SSW8.0 kmh SSW 6.0 mph9.7 kmh 29.45 in997.3 mb 0.00 in0.0 mm 0.00 in0.0 mm 0.00 in0.0 mm
05:01 AM 35.8°F2.1°C 34.8°F1.6°C 96% 3.0 mph S4.8 kmh S 5.0 mph8.0 kmh 29.44 in997.0 mb 0.00 in0.0 mm 0.00 in0.0 mm 0.00 in0.0 mm
05:00 AM 35.8°F2.1°C 34.8°F1.6°C 96% 1.0 mph S1.6 kmh S 3.0 mph4.8 kmh 29.44 in997.0 mb 0.00 in0.0 mm 0.00 in0.0 mm 0.00 in0.0 mm
04:59 AM 35.8°F2.1°C 34.8°F1.6°C 96% 1.0 mph S1.6 kmh S 2.0 mph3.2 kmh 29.44 in997.0 mb 0.00 in0.0 mm 0.00 in0.0 mm 0.00 in0.0 mm
04:58 AM 35.8°F2.1°C 34.8°F1.6°C 96% 1.0 mph S1.6 kmh S 2.0 mph3.2 kmh 29.44 in997.0 mb 0.00 in0.0 mm 0.00 in0.0 mm 0.00 in0.0 mm
04:57 AM 35.8°F2.1°C 34.8°F1.6°C 96% 1.0 mph S1.6 kmh S 3.0 mph4.8 kmh 29.44 in997.0 mb 0.00 in0.0 mm 0.00 in0.0 mm 0.00 in0.0 mm
04:56 AM 35.9°F2.2°C 34.8°F1.6°C 96% 2.0 mph S3.2 kmh S 5.0 mph8.0 kmh 29.44 in997.0 mb 0.00 in0.0 mm 0.00 in0.0 mm 0.00 in0.0 mm
04:55 AM 35.9°F2.2°C 34.9°F1.6°C 96% 4.0 mph S6.4 kmh S 5.0 mph8.0 kmh 29.44 in997.0 mb 0.00 in0.0 mm 0.00 in0.0 mm 0.00 in0.0 mm
04:54 AM 36.0°F2.2°C 35.0°F1.7°C 96% 4.0 mph S6.4 kmh S 5.0 mph8.0 kmh 29.44 in997.0 mb 0.00 in0.0 mm 0.00 in0.0 mm 0.00 in0.0 mm
04:53 AM 36.0°F2.2°C 35.0°F1.7°C 96% 4.0 mph S6.4 kmh S 5.0 mph8.0 kmh 29.44 in997.0 mb 0.00 in0.0 mm 0.00 in0.0 mm 0.00 in0.0 mm
04:52 AM 36.0°F2.2°C 35.0°F1.7°C 96% 2.0 mph SSE3.2 kmh SSE 4.0 mph6.4 kmh 29.44 in997.0 mb 0.00 in0.0 mm 0.00 in0.0 mm 0.00 in0.0 mm
04:51 AM 36.1°F2.3°C 35.1°F1.7°C 96% 2.0 mph SSE3.2 kmh SSE 4.0 mph6.4 kmh 29.44 in997.0 mb 0.00 in0.0 mm 0.00 in0.0 mm 0.00 in0.0 mm
04:50 AM 36.1°F2.3°C 35.1°F1.7°C 96% 1.0 mph SSE1.6 kmh SSE 4.0 mph6.4 kmh 29.44 in997.0 mb 0.00 in0.0 mm 0.00 in0.0 mm 0.00 in0.0 mm
04:49 AM 36.1°F2.3°C 35.1°F1.7°C 96% 2.0 mph SSE3.2 kmh SSE 3.0 mph4.8 kmh 29.44 in997.0 mb 0.00 in0.0 mm 0.00 in0.0 mm 0.00 in0.0 mm
04:48 AM 36.2°F2.3°C 35.2°F1.8°C 96% 2.0 mph SSE3.2 kmh SSE 3.0 mph4.8 kmh 29.44 in997.0 mb 0.00 in0.0 mm 0.00 in0.0 mm 0.00 in0.0 mm
04:47 AM 36.2°F2.3°C 35.1°F1.7°C 96% 2.0 mph SE3.2 kmh SE 3.0 mph4.8 kmh 29.45 in997.3 mb 0.00 in0.0 mm 0.00 in0.0 mm 0.00 in0.0 mm
04:46 AM 36.1°F2.3°C 35.1°F1.7°C 96% 1.0 mph E1.6 kmh E 2.0 mph3.2 kmh 29.44 in997.0 mb 0.00 in0.0 mm 0.00 in0.0 mm 0.00 in0.0 mm
04:45 AM 36.1°F2.3°C 35.1°F1.7°C 96% 1.0 mph E1.6 kmh E 3.0 mph4.8 kmh 29.44 in997.0 mb 0.00 in0.0 mm 0.00 in0.0 mm 0.00 in0.0 mm
04:44 AM 36.1°F2.3°C 35.1°F1.7°C 96% 2.0 mph NE3.2 kmh NE 3.0 mph4.8 kmh 29.45 in997.3 mb 0.00 in0.0 mm 0.00 in0.0 mm 0.00 in0.0 mm
04:43 AM 36.1°F2.3°C 35.0°F1.7°C 96% 2.0 mph NE3.2 kmh NE 3.0 mph4.8 kmh 29.45 in997.3 mb 0.00 in0.0 mm 0.00 in0.0 mm 0.00 in0.0 mm
04:42 AM 36.0°F2.2°C 35.0°F1.7°C 96% 1.0 mph NE1.6 kmh NE 1.0 mph1.6 kmh 29.45 in997.3 mb 0.00 in0.0 mm 0.00 in0.0 mm 0.00 in0.0 mm
04:41 AM 36.0°F2.2°C 35.0°F1.7°C 96% Calm Calm 1.0 mph1.6 kmh 29.45 in997.3 mb 0.00 in0.0 mm 0.00 in0.0 mm 0.00 in0.0 mm
04:40 AM 36.0°F2.2°C 35.0°F1.7°C 96% Calm Calm 2.0 mph3.2 kmh 29.46 in997.6 mb 0.00 in0.0 mm 0.00 in0.0 mm 0.00 in0.0 mm
04:39 AM 36.0°F2.2°C 35.0°F1.7°C 96% 1.0 mph NE1.6 kmh NE 2.0 mph3.2 kmh 29.46 in997.6 mb 0.00 in0.0 mm 0.00 in0.0 mm 0.00 in0.0 mm
04:38 AM 36.0°F2.2°C 35.0°F1.7°C 96% Calm Calm 1.0 mph1.6 kmh 29.46 in997.6 mb 0.00 in0.0 mm 0.00 in0.0 mm 0.00 in0.0 mm
04:37 AM 36.0°F2.2°C 35.0°F1.7°C 96% Calm Calm 3.0 mph4.8 kmh 29.46 in997.6 mb 0.00 in0.0 mm 0.00 in0.0 mm 0.00 in0.0 mm
04:36 AM 36.0°F2.2°C 35.0°F1.7°C 96% 1.0 mph NE1.6 kmh NE 3.0 mph4.8 kmh 29.46 in997.6 mb 0.00 in0.0 mm 0.00 in0.0 mm 0.00 in0.0 mm
04:35 AM 36.0°F2.2°C 35.0°F1.7°C 96% 1.0 mph NNE1.6 kmh NNE 3.0 mph4.8 kmh 29.46 in997.6 mb 0.00 in0.0 mm 0.00 in0.0 mm 0.00 in0.0 mm
04:34 AM 36.0°F2.2°C 35.0°F1.7°C 96% Calm Calm -- 29.46 in997.6 mb 0.00 in0.0 mm 0.00 in0.0 mm 0.00 in0.0 mm
04:33 AM 36.0°F2.2°C 34.9°F1.6°C 96% Calm Calm -- 29.46 in997.6 mb 0.00 in0.0 mm 0.00 in0.0 mm 0.00 in0.0 mm
04:32 AM 35.9°F2.2°C 34.9°F1.6°C 96% Calm Calm -- 29.46 in997.6 mb 0.00 in0.0 mm 0.00 in0.0 mm 0.00 in0.0 mm
04:31 AM 35.9°F2.2°C 34.9°F1.6°C 96% Calm Calm -- 29.46 in997.6 mb 0.00 in0.0 mm 0.00 in0.0 mm 0.00 in0.0 mm
04:30 AM 36.0°F2.2°C 34.9°F1.6°C 96% Calm Calm -- 29.47 in998.0 mb 0.00 in0.0 mm 0.00 in0.0 mm 0.00 in0.0 mm
04:29 AM 35.9°F2.2°C 34.9°F1.6°C 96% Calm Calm 2.0 mph3.2 kmh 29.46 in997.6 mb 0.00 in0.0 mm 0.00 in0.0 mm 0.00 in0.0 mm
04:28 AM 35.9°F2.2°C 34.9°F1.6°C 96% 1.0 mph NNE1.6 kmh NNE 3.0 mph4.8 kmh 29.46 in997.6 mb 0.00 in0.0 mm 0.00 in0.0 mm 0.00 in0.0 mm
04:27 AM 35.9°F2.2°C 34.9°F1.6°C 96% 1.0 mph SE1.6 kmh SE 3.0 mph4.8 kmh 29.47 in998.0 mb 0.00 in0.0 mm 0.00 in0.0 mm 0.00 in0.0 mm
04:26 AM 35.9°F2.2°C 34.9°F1.6°C 96% 2.0 mph S3.2 kmh S 4.0 mph6.4 kmh 29.47 in998.0 mb 0.00 in0.0 mm 0.00 in0.0 mm 0.00 in0.0 mm
04:25 AM 35.9°F2.2°C 34.9°F1.6°C 96% 2.0 mph S3.2 kmh S 4.0 mph6.4 kmh 29.47 in998.0 mb 0.00 in0.0 mm 0.00 in0.0 mm 0.00 in0.0 mm
04:24 AM 35.8°F2.1°C 34.8°F1.6°C 96% Calm Calm 1.0 mph1.6 kmh 29.47 in998.0 mb 0.00 in0.0 mm 0.00 in0.0 mm 0.00 in0.0 mm
04:23 AM 35.8°F2.1°C 34.8°F1.6°C 96% Calm Calm -- 29.47 in998.0 mb 0.00 in0.0 mm 0.00 in0.0 mm 0.00 in0.0 mm
04:22 AM 35.9°F2.2°C 34.9°F1.6°C 96% Calm Calm -- 29.47 in998.0 mb 0.00 in0.0 mm 0.00 in0.0 mm 0.00 in0.0 mm
04:21 AM 35.9°F2.2°C 34.9°F1.6°C 96% Calm Calm -- 29.47 in998.0 mb 0.00 in0.0 mm 0.00 in0.0 mm 0.00 in0.0 mm
04:20 AM 35.9°F2.2°C 34.9°F1.6°C 96% Calm Calm -- 29.47 in998.0 mb 0.00 in0.0 mm 0.00 in0.0 mm 0.00 in0.0 mm
04:19 AM 35.9°F2.2°C 34.9°F1.6°C 96% Calm Calm -- 29.47 in998.0 mb 0.00 in0.0 mm 0.00 in0.0 mm 0.00 in0.0 mm
04:18 AM 36.0°F2.2°C 35.0°F1.7°C 96% Calm Calm -- 29.47 in998.0 mb 0.00 in0.0 mm 0.00 in0.0 mm 0.00 in0.0 mm
04:17 AM 36.0°F2.2°C 35.0°F1.7°C 96% Calm Calm -- 29.47 in998.0 mb 0.00 in0.0 mm 0.00 in0.0 mm 0.00 in0.0 mm
04:16 AM 36.0°F2.2°C 35.0°F1.7°C 96% Calm Calm -- 29.47 in998.0 mb 0.00 in0.0 mm 0.00 in0.0 mm 0.00 in0.0 mm
04:15 AM 36.0°F2.2°C 35.0°F1.7°C 96% Calm Calm -- 29.47 in998.0 mb 0.00 in0.0 mm 0.00 in0.0 mm 0.00 in0.0 mm
04:14 AM 35.9°F2.2°C 34.9°F1.6°C 96% Calm Calm -- 29.46 in997.6 mb 0.00 in0.0 mm 0.00 in0.0 mm 0.00 in0.0 mm
04:13 AM 35.9°F2.2°C 34.9°F1.6°C 96% Calm Calm 4.0 mph6.4 kmh 29.46 in997.6 mb 0.00 in0.0 mm 0.00 in0.0 mm 0.00 in0.0 mm
04:12 AM 35.9°F2.2°C 34.9°F1.6°C 96% 1.0 mph S1.6 kmh S 4.0 mph6.4 kmh 29.46 in997.6 mb 0.00 in0.0 mm 0.00 in0.0 mm 0.00 in0.0 mm
04:11 AM 36.0°F2.2°C 35.0°F1.7°C 96% 2.0 mph S3.2 kmh S 4.0 mph6.4 kmh 29.46 in997.6 mb 0.00 in0.0 mm 0.00 in0.0 mm 0.00 in0.0 mm
04:10 AM 36.0°F2.2°C 35.0°F1.7°C 96% 2.0 mph S3.2 kmh S 3.0 mph4.8 kmh 29.46 in997.6 mb 0.00 in0.0 mm 0.00 in0.0 mm 0.00 in0.0 mm
04:09 AM 36.0°F2.2°C 35.0°F1.7°C 96% 1.0 mph S1.6 kmh S 2.0 mph3.2 kmh 29.46 in997.6 mb 0.00 in0.0 mm 0.00 in0.0 mm 0.00 in0.0 mm
04:08 AM 36.0°F2.2°C 35.0°F1.7°C 96% 1.0 mph S1.6 kmh S 2.0 mph3.2 kmh 29.46 in997.6 mb 0.00 in0.0 mm 0.00 in0.0 mm 0.00 in0.0 mm
04:07 AM 36.0°F2.2°C 35.0°F1.7°C 96% Calm Calm 1.0 mph1.6 kmh 29.46 in997.6 mb 0.00 in0.0 mm 0.00 in0.0 mm 0.00 in0.0 mm
04:06 AM 36.0°F2.2°C 35.0°F1.7°C 96% Calm Calm -- 29.46 in997.6 mb 0.00 in0.0 mm 0.00 in0.0 mm 0.00 in0.0 mm
04:05 AM 36.0°F2.2°C 35.0°F1.7°C 96% Calm Calm -- 29.46 in997.6 mb 0.00 in0.0 mm 0.00 in0.0 mm 0.00 in0.0 mm
04:04 AM 36.0°F2.2°C 35.0°F1.7°C 96% Calm Calm 2.0 mph3.2 kmh 29.46 in997.6 mb 0.00 in0.0 mm 0.00 in0.0 mm 0.00 in0.0 mm
04:03 AM 36.0°F2.2°C 35.0°F1.7°C 96% 1.0 mph S1.6 kmh S 3.0 mph4.8 kmh 29.46 in997.6 mb 0.00 in0.0 mm 0.00 in0.0 mm 0.00 in0.0 mm
04:02 AM 36.1°F2.3°C 35.0°F1.7°C 96% 1.0 mph S1.6 kmh S 4.0 mph6.4 kmh 29.46 in997.6 mb 0.00 in0.0 mm 0.00 in0.0 mm 0.00 in0.0 mm
04:01 AM 36.1°F2.3°C 35.1°F1.7°C 96% 2.0 mph S3.2 kmh S 4.0 mph6.4 kmh 29.46 in997.6 mb 0.00 in0.0 mm 0.00 in0.0 mm 0.00 in0.0 mm
04:00 AM 36.2°F2.3°C 35.1°F1.7°C 96% 2.0 mph SSE3.2 kmh SSE 4.0 mph6.4 kmh 29.46 in997.6 mb 0.00 in0.0 mm 0.00 in0.0 mm 0.00 in0.0 mm
03:59 AM 36.2°F2.3°C 35.2°F1.8°C 96% Calm Calm 2.0 mph3.2 kmh 29.47 in998.0 mb 0.00 in0.0 mm 0.00 in0.0 mm 0.00 in0.0 mm
03:58 AM 36.2°F2.3°C 35.2°F1.8°C 96% Calm Calm 2.0 mph3.2 kmh 29.46 in997.6 mb 0.00 in0.0 mm 0.00 in0.0 mm 0.00 in0.0 mm
03:57 AM 36.2°F2.3°C 35.2°F1.8°C 96% 1.0 mph SSE1.6 kmh SSE 5.0 mph8.0 kmh 29.46 in997.6 mb 0.00 in0.0 mm 0.00 in0.0 mm 0.00 in0.0 mm
03:56 AM 36.2°F2.3°C 35.2°F1.8°C 96% 3.0 mph S4.8 kmh S 5.0 mph8.0 kmh 29.46 in997.6 mb 0.00 in0.0 mm 0.00 in0.0 mm 0.00 in0.0 mm
03:55 AM 36.2°F2.3°C 35.2°F1.8°C 96% 1.0 mph SE1.6 kmh SE 3.0 mph4.8 kmh 29.46 in997.6 mb 0.00 in0.0 mm 0.00 in0.0 mm 0.00 in0.0 mm
03:54 AM 36.2°F2.3°C 35.2°F1.8°C 96% 1.0 mph E1.6 kmh E 1.0 mph1.6 kmh 29.46 in997.6 mb 0.00 in0.0 mm 0.00 in0.0 mm 0.00 in0.0 mm
03:53 AM 36.2°F2.3°C 35.2°F1.8°C 96% Calm Calm -- 29.46 in997.6 mb 0.00 in0.0 mm 0.00 in0.0 mm 0.00 in0.0 mm
03:52 AM 36.2°F2.3°C 35.2°F1.8°C 96% Calm Calm 1.0 mph1.6 kmh 29.46 in997.6 mb 0.00 in0.0 mm 0.00 in0.0 mm 0.00 in0.0 mm
03:51 AM 36.2°F2.3°C 35.2°F1.8°C 96% Calm Calm 1.0 mph1.6 kmh 29.46 in997.6 mb 0.00 in0.0 mm 0.00 in0.0 mm 0.00 in0.0 mm
03:50 AM 36.2°F2.3°C 35.2°F1.8°C 96% Calm Calm -- 29.46 in997.6 mb 0.00 in0.0 mm 0.00 in0.0 mm 0.00 in0.0 mm
03:49 AM 36.2°F2.3°C 35.2°F1.8°C 96% Calm Calm -- 29.46 in997.6 mb 0.00 in0.0 mm 0.00 in0.0 mm 0.00 in0.0 mm
03:48 AM 36.1°F2.3°C 35.1°F1.7°C 96% Calm Calm -- 29.46 in997.6 mb 0.00 in0.0 mm 0.00 in0.0 mm 0.00 in0.0 mm
03:47 AM 36.1°F2.3°C 35.1°F1.7°C 96% Calm Calm 1.0 mph1.6 kmh 29.46 in997.6 mb 0.00 in0.0 mm 0.00 in0.0 mm 0.00 in0.0 mm
03:46 AM 36.0°F2.2°C 35.0°F1.7°C 96% Calm Calm 2.0 mph3.2 kmh 29.46 in997.6 mb 0.00 in0.0 mm 0.00 in0.0 mm 0.00 in0.0 mm
03:45 AM 36.0°F2.2°C 35.0°F1.7°C 96% 1.0 mph E1.6 kmh E 2.0 mph3.2 kmh 29.46 in997.6 mb 0.00 in0.0 mm 0.00 in0.0 mm 0.00 in0.0 mm
03:44 AM 36.0°F2.2°C 35.0°F1.7°C 96% Calm Calm 3.0 mph4.8 kmh 29.46 in997.6 mb 0.00 in0.0 mm 0.00 in0.0 mm 0.00 in0.0 mm
03:43 AM 36.0°F2.2°C 35.0°F1.7°C 96% 2.0 mph E3.2 kmh E 3.0 mph4.8 kmh 29.46 in997.6 mb 0.00 in0.0 mm 0.00 in0.0 mm 0.00 in0.0 mm
03:42 AM 35.9°F2.2°C 34.9°F1.6°C 96% 2.0 mph E3.2 kmh E 3.0 mph4.8 kmh 29.47 in998.0 mb 0.00 in0.0 mm 0.00 in0.0 mm 0.00 in0.0 mm
03:41 AM 35.9°F2.2°C 34.9°F1.6°C 96% 1.0 mph E1.6 kmh E 1.0 mph1.6 kmh 29.47 in998.0 mb 0.00 in0.0 mm 0.00 in0.0 mm 0.00 in0.0 mm
03:40 AM 35.9°F2.2°C 34.9°F1.6°C 96% Calm Calm 1.0 mph1.6 kmh 29.47 in998.0 mb 0.00 in0.0 mm 0.00 in0.0 mm 0.00 in0.0 mm
03:39 AM 35.9°F2.2°C 34.9°F1.6°C 96% Calm Calm 3.0 mph4.8 kmh 29.47 in998.0 mb 0.00 in0.0 mm 0.00 in0.0 mm 0.00 in0.0 mm
03:38 AM 35.8°F2.1°C 34.8°F1.6°C 96% 2.0 mph ENE3.2 kmh ENE 3.0 mph4.8 kmh 29.47 in998.0 mb 0.00 in0.0 mm 0.00 in0.0 mm 0.00 in0.0 mm
03:37 AM 35.8°F2.1°C 34.8°F1.6°C 96% 1.0 mph NE1.6 kmh NE 2.0 mph3.2 kmh 29.47 in998.0 mb 0.00 in0.0 mm 0.00 in0.0 mm 0.00 in0.0 mm
03:36 AM 35.8°F2.1°C 34.8°F1.6°C 96% 1.0 mph NE1.6 kmh NE 2.0 mph3.2 kmh 29.47 in998.0 mb 0.00 in0.0 mm 0.00 in0.0 mm 0.00 in0.0 mm
03:35 AM 35.8°F2.1°C 34.8°F1.6°C 96% 1.0 mph NE1.6 kmh NE 2.0 mph3.2 kmh 29.47 in998.0 mb 0.00 in0.0 mm 0.00 in0.0 mm 0.00 in0.0 mm
03:34 AM 35.8°F2.1°C 34.8°F1.6°C 96% 1.0 mph NE1.6 kmh NE 3.0 mph4.8 kmh 29.47 in998.0 mb 0.00 in0.0 mm 0.00 in0.0 mm 0.00 in0.0 mm
03:33 AM 35.8°F2.1°C 34.8°F1.6°C 96% 2.0 mph NE3.2 kmh NE 3.0 mph4.8 kmh 29.46 in997.6 mb 0.00 in0.0 mm 0.00 in0.0 mm 0.00 in0.0 mm
03:32 AM 35.8°F2.1°C 34.8°F1.6°C 96% 2.0 mph ENE3.2 kmh ENE 4.0 mph6.4 kmh 29.46 in997.6 mb 0.00 in0.0 mm 0.00 in0.0 mm 0.00 in0.0 mm
03:31 AM 35.9°F2.2°C 34.8°F1.6°C 96% 3.0 mph E4.8 kmh E 6.0 mph9.7 kmh 29.46 in997.6 mb 0.00 in0.0 mm 0.00 in0.0 mm 0.00 in0.0 mm
03:30 AM 35.9°F2.2°C 34.9°F1.6°C 96% 3.0 mph E4.8 kmh E 6.0 mph9.7 kmh 29.46 in997.6 mb 0.00 in0.0 mm 0.00 in0.0 mm 0.00 in0.0 mm
03:29 AM 35.9°F2.2°C 34.9°F1.6°C 96% 3.0 mph E4.8 kmh E 7.0 mph11.3 kmh 29.46 in997.6 mb 0.00 in0.0 mm 0.00 in0.0 mm 0.00 in0.0 mm
03:28 AM 35.9°F2.2°C 34.9°F1.6°C 96% 4.0 mph E6.4 kmh E 7.0 mph11.3 kmh 29.46 in997.6 mb 0.00 in0.0 mm 0.00 in0.0 mm 0.00 in0.0 mm
03:27 AM 35.9°F2.2°C 34.9°F1.6°C 96% 2.0 mph NE3.2 kmh NE 3.0 mph4.8 kmh 29.47 in998.0 mb 0.00 in0.0 mm 0.00 in0.0 mm 0.00 in0.0 mm
03:26 AM 35.9°F2.2°C 34.9°F1.6°C 96% 1.0 mph ENE1.6 kmh ENE 3.0 mph4.8 kmh 29.47 in998.0 mb 0.00 in0.0 mm 0.00 in0.0 mm 0.00 in0.0 mm
03:25 AM 35.9°F2.2°C 34.9°F1.6°C 96% 2.0 mph E3.2 kmh E 4.0 mph6.4 kmh 29.47 in998.0 mb 0.00 in0.0 mm 0.00 in0.0 mm 0.00 in0.0 mm
03:24 AM 35.9°F2.2°C 34.9°F1.6°C 96% 3.0 mph E4.8 kmh E 4.0 mph6.4 kmh 29.47 in998.0 mb 0.00 in0.0 mm 0.00 in0.0 mm 0.00 in0.0 mm
03:23 AM 35.9°F2.2°C 34.9°F1.6°C 96% 2.0 mph E3.2 kmh E 4.0 mph6.4 kmh 29.47 in998.0 mb 0.00 in0.0 mm 0.00 in0.0 mm 0.00 in0.0 mm
03:22 AM 35.9°F2.2°C 34.9°F1.6°C 96% 3.0 mph E4.8 kmh E 5.0 mph8.0 kmh 29.46 in997.6 mb 0.00 in0.0 mm 0.00 in0.0 mm 0.00 in0.0 mm
03:21 AM 35.9°F2.2°C 34.9°F1.6°C 96% 4.0 mph E6.4 kmh E 5.0 mph8.0 kmh 29.46 in997.6 mb 0.00 in0.0 mm 0.00 in0.0 mm 0.00 in0.0 mm
03:20 AM 35.9°F2.2°C 34.9°F1.6°C 96% 3.0 mph E4.8 kmh E 5.0 mph8.0 kmh 29.46 in997.6 mb 0.00 in0.0 mm 0.00 in0.0 mm 0.00 in0.0 mm
03:19 AM 35.9°F2.2°C 34.9°F1.6°C 96% 3.0 mph E4.8 kmh E 5.0 mph8.0 kmh 29.46 in997.6 mb 0.00 in0.0 mm 0.00 in0.0 mm 0.00 in0.0 mm
03:18 AM 35.8°F2.1°C 34.8°F1.6°C 96% 3.0 mph E4.8 kmh E 6.0 mph9.7 kmh 29.47 in998.0 mb 0.00 in0.0 mm 0.00 in0.0 mm 0.00 in0.0 mm
03:17 AM 35.8°F2.1°C 34.8°F1.6°C 96% 3.0 mph E4.8 kmh E 6.0 mph9.7 kmh 29.47 in998.0 mb 0.00 in0.0 mm 0.00 in0.0 mm 0.00 in0.0 mm
03:16 AM 35.8°F2.1°C 34.8°F1.6°C 96% 3.0 mph ENE4.8 kmh ENE 5.0 mph8.0 kmh 29.47 in998.0 mb 0.00 in0.0 mm 0.00 in0.0 mm 0.00 in0.0 mm
03:15 AM 35.8°F2.1°C 34.8°F1.6°C 96% 1.0 mph NE1.6 kmh NE 4.0 mph6.4 kmh 29.47 in998.0 mb 0.00 in0.0 mm 0.00 in0.0 mm 0.00 in0.0 mm
03:14 AM 35.8°F2.1°C 34.8°F1.6°C 96% 3.0 mph NE4.8 kmh NE 5.0 mph8.0 kmh 29.46 in997.6 mb 0.00 in0.0 mm 0.00 in0.0 mm 0.00 in0.0 mm
03:13 AM 35.8°F2.1°C 34.8°F1.6°C 96% 4.0 mph NE6.4 kmh NE 6.0 mph9.7 kmh 29.46 in997.6 mb 0.00 in0.0 mm 0.00 in0.0 mm 0.00 in0.0 mm
03:12 AM 35.8°F2.1°C 34.8°F1.6°C 96% 4.0 mph NE6.4 kmh NE 6.0 mph9.7 kmh 29.46 in997.6 mb 0.00 in0.0 mm 0.00 in0.0 mm 0.00 in0.0 mm
03:11 AM 35.8°F2.1°C 34.8°F1.6°C 96% 2.0 mph NE3.2 kmh NE 4.0 mph6.4 kmh 29.46 in997.6 mb 0.00 in0.0 mm 0.00 in0.0 mm 0.00 in0.0 mm
03:10 AM 35.8°F2.1°C 34.8°F1.6°C 96% 2.0 mph NE3.2 kmh NE 4.0 mph6.4 kmh 29.46 in997.6 mb 0.00 in0.0 mm 0.00 in0.0 mm 0.00 in0.0 mm
03:09 AM 35.8°F2.1°C 34.8°F1.6°C 96% 3.0 mph NE4.8 kmh NE 5.0 mph8.0 kmh 29.46 in997.6 mb 0.00 in0.0 mm 0.00 in0.0 mm 0.00 in0.0 mm
03:08 AM 35.8°F2.1°C 34.8°F1.6°C 96% 3.0 mph NE4.8 kmh NE 5.0 mph8.0 kmh 29.46 in997.6 mb 0.00 in0.0 mm 0.00 in0.0 mm 0.00 in0.0 mm
03:07 AM 35.8°F2.1°C 34.8°F1.6°C 96% 4.0 mph NE6.4 kmh NE 6.0 mph9.7 kmh 29.46 in997.6 mb 0.00 in0.0 mm 0.00 in0.0 mm 0.00 in0.0 mm
03:06 AM 35.8°F2.1°C 34.8°F1.6°C 96% 4.0 mph NE6.4 kmh NE 6.0 mph9.7 kmh 29.47 in998.0 mb 0.00 in0.0 mm 0.00 in0.0 mm 0.00 in0.0 mm
03:05 AM 35.8°F2.1°C 34.8°F1.6°C 96% 3.0 mph NE4.8 kmh NE 4.0 mph6.4 kmh 29.47 in998.0 mb 0.00 in0.0 mm 0.00 in0.0 mm 0.00 in0.0 mm
03:04 AM 35.8°F2.1°C 34.8°F1.6°C 96% 2.0 mph ENE3.2 kmh ENE 4.0 mph6.4 kmh 29.47 in998.0 mb 0.00 in0.0 mm 0.00 in0.0 mm 0.00 in0.0 mm
03:03 AM 35.7°F2.1°C 34.7°F1.5°C 96% 1.0 mph E1.6 kmh E 3.0 mph4.8 kmh 29.47 in998.0 mb 0.00 in0.0 mm 0.00 in0.0 mm 0.00 in0.0 mm
03:02 AM 35.7°F2.1°C 34.7°F1.5°C 96% 1.0 mph E1.6 kmh E 4.0 mph6.4 kmh 29.48 in998.3 mb 0.00 in0.0 mm 0.00 in0.0 mm 0.00 in0.0 mm
03:01 AM 35.7°F2.1°C 34.6°F1.4°C 96% 3.0 mph E4.8 kmh E 4.0 mph6.4 kmh 29.47 in998.0 mb 0.00 in0.0 mm 0.00 in0.0 mm 0.00 in0.0 mm
03:00 AM 35.6°F2.0°C 34.6°F1.4°C 96% 3.0 mph E4.8 kmh E 4.0 mph6.4 kmh 29.48 in998.3 mb 0.00 in0.0 mm 0.00 in0.0 mm 0.00 in0.0 mm
02:59 AM 35.6°F2.0°C 34.6°F1.4°C 96% 2.0 mph NE3.2 kmh NE 4.0 mph6.4 kmh 29.48 in998.3 mb 0.00 in0.0 mm 0.00 in0.0 mm 0.00 in0.0 mm
02:58 AM 35.6°F2.0°C 34.6°F1.4°C 96% 1.0 mph ENE1.6 kmh ENE 4.0 mph6.4 kmh 29.47 in998.0 mb 0.00 in0.0 mm 0.00 in0.0 mm 0.00 in0.0 mm
02:57 AM 35.5°F1.9°C 34.5°F1.4°C 96% 2.0 mph ENE3.2 kmh ENE 4.0 mph6.4 kmh 29.48 in998.3 mb 0.00 in0.0 mm 0.00 in0.0 mm 0.00 in0.0 mm
02:56 AM 35.5°F1.9°C 34.5°F1.4°C 96% 2.0 mph NE3.2 kmh NE 3.0 mph4.8 kmh 29.48 in998.3 mb 0.00 in0.0 mm 0.00 in0.0 mm 0.00 in0.0 mm
02:55 AM 35.5°F1.9°C 34.5°F1.4°C 96% 1.0 mph NE1.6 kmh NE 4.0 mph6.4 kmh 29.48 in998.3 mb 0.00 in0.0 mm 0.00 in0.0 mm 0.00 in0.0 mm
02:54 AM 35.5°F1.9°C 34.5°F1.4°C 96% 3.0 mph NE4.8 kmh NE 4.0 mph6.4 kmh 29.48 in998.3 mb 0.00 in0.0 mm 0.00 in0.0 mm 0.00 in0.0 mm
02:53 AM 35.5°F1.9°C 34.5°F1.4°C 96% 2.0 mph NE3.2 kmh NE 5.0 mph8.0 kmh 29.48 in998.3 mb 0.00 in0.0 mm 0.00 in0.0 mm 0.00 in0.0 mm
02:52 AM 35.5°F1.9°C 34.5°F1.4°C 96% 3.0 mph ENE4.8 kmh ENE 5.0 mph8.0 kmh 29.48 in998.3 mb 0.00 in0.0 mm 0.00 in0.0 mm 0.00 in0.0 mm
02:51 AM 35.5°F1.9°C 34.4°F1.3°C 96% 4.0 mph NE6.4 kmh NE 5.0 mph8.0 kmh 29.48 in998.3 mb 0.00 in0.0 mm 0.00 in0.0 mm 0.00 in0.0 mm
02:50 AM 35.4°F1.9°C 34.4°F1.3°C 96% 4.0 mph NE6.4 kmh NE 6.0 mph9.7 kmh 29.48 in998.3 mb 0.00 in0.0 mm 0.00 in0.0 mm 0.00 in0.0 mm
02:49 AM 35.4°F1.9°C 34.4°F1.3°C 96% 4.0 mph NE6.4 kmh NE 6.0 mph9.7 kmh 29.48 in998.3 mb 0.00 in0.0 mm 0.00 in0.0 mm 0.00 in0.0 mm
02:48 AM 35.4°F1.9°C 34.4°F1.3°C 96% 4.0 mph NE6.4 kmh NE 6.0 mph9.7 kmh 29.48 in998.3 mb 0.00 in0.0 mm 0.00 in0.0 mm 0.00 in0.0 mm
02:47 AM 35.4°F1.9°C 34.4°F1.3°C 96% 3.0 mph NE4.8 kmh NE 6.0 mph9.7 kmh 29.48 in998.3 mb 0.00 in0.0 mm 0.00 in0.0 mm 0.00 in0.0 mm
02:46 AM 35.4°F1.9°C 34.4°F1.3°C 96% 3.0 mph NE4.8 kmh NE 7.0 mph11.3 kmh 29.48 in998.3 mb 0.00 in0.0 mm 0.00 in0.0 mm 0.00 in0.0 mm
02:45 AM 35.4°F1.9°C 34.4°F1.3°C 96% 4.0 mph NE6.4 kmh NE 7.0 mph11.3 kmh 29.47 in998.0 mb 0.00 in0.0 mm 0.00 in0.0 mm 0.00 in0.0 mm
02:44 AM 35.4°F1.9°C 34.4°F1.3°C 96% 5.0 mph ENE8.0 kmh ENE 6.0 mph9.7 kmh 29.47 in998.0 mb 0.00 in0.0 mm 0.00 in0.0 mm 0.00 in0.0 mm
02:43 AM 35.4°F1.9°C 34.3°F1.3°C 96% 3.0 mph NE4.8 kmh NE 7.0 mph11.3 kmh 29.47 in998.0 mb 0.00 in0.0 mm 0.00 in0.0 mm 0.00 in0.0 mm
02:42 AM 35.3°F1.8°C 34.3°F1.3°C 96% 5.0 mph NE8.0 kmh NE 7.0 mph11.3 kmh 29.47 in998.0 mb 0.00 in0.0 mm 0.00 in0.0 mm 0.00 in0.0 mm
02:41 AM 35.3°F1.8°C 34.3°F1.3°C 96% 3.0 mph NNE4.8 kmh NNE 7.0 mph11.3 kmh 29.47 in998.0 mb 0.00 in0.0 mm 0.00 in0.0 mm 0.00 in0.0 mm
02:40 AM 35.3°F1.8°C 34.2°F1.2°C 96% 3.0 mph NE4.8 kmh NE 4.0 mph6.4 kmh 29.47 in998.0 mb 0.00 in0.0 mm 0.00 in0.0 mm 0.00 in0.0 mm
02:39 AM 35.2°F1.8°C 34.2°F1.2°C 96% 3.0 mph NE4.8 kmh NE 4.0 mph6.4 kmh 29.47 in998.0 mb 0.00 in0.0 mm 0.00 in0.0 mm 0.00 in0.0 mm
02:38 AM 35.2°F1.8°C 34.2°F1.2°C 96% 3.0 mph NE4.8 kmh NE 4.0 mph6.4 kmh 29.47 in998.0 mb 0.00 in0.0 mm 0.00 in0.0 mm 0.00 in0.0 mm
02:37 AM 35.2°F1.8°C 34.2°F1.2°C 96% 2.0 mph NE3.2 kmh NE 4.0 mph6.4 kmh 29.47 in998.0 mb 0.00 in0.0 mm 0.00 in0.0 mm 0.00 in0.0 mm
02:36 AM 35.1°F1.7°C 34.1°F1.2°C 96% 2.0 mph ENE3.2 kmh ENE 5.0 mph8.0 kmh 29.46 in997.6 mb 0.00 in0.0 mm 0.00 in0.0 mm 0.00 in0.0 mm
02:35 AM 35.1°F1.7°C 34.1°F1.2°C 96% 3.0 mph NE4.8 kmh NE 5.0 mph8.0 kmh 29.46 in997.6 mb 0.00 in0.0 mm 0.00 in0.0 mm 0.00 in0.0 mm
02:34 AM 35.1°F1.7°C 34.1°F1.2°C 96% 2.0 mph NE3.2 kmh NE 3.0 mph4.8 kmh 29.46 in997.6 mb 0.00 in0.0 mm 0.00 in0.0 mm 0.00 in0.0 mm
02:33 AM 35.1°F1.7°C 34.1°F1.2°C 96% 2.0 mph NE3.2 kmh NE 4.0 mph6.4 kmh 29.46 in997.6 mb 0.00 in0.0 mm 0.00 in0.0 mm 0.00 in0.0 mm
02:32 AM 35.1°F1.7°C 34.1°F1.2°C 96% 3.0 mph NE4.8 kmh NE 4.0 mph6.4 kmh 29.46 in997.6 mb 0.00 in0.0 mm 0.00 in0.0 mm 0.00 in0.0 mm
02:31 AM 35.1°F1.7°C 34.1°F1.2°C 96% 2.0 mph NE3.2 kmh NE 4.0 mph6.4 kmh 29.47 in998.0 mb 0.00 in0.0 mm 0.00 in0.0 mm 0.00 in0.0 mm
02:30 AM 35.1°F1.7°C 34.0°F1.1°C 96% 1.0 mph NE1.6 kmh NE 3.0 mph4.8 kmh 29.47 in998.0 mb 0.00 in0.0 mm 0.00 in0.0 mm 0.00 in0.0 mm
02:29 AM 35.1°F1.7°C 34.1°F1.2°C 96% 1.0 mph NE1.6 kmh NE 4.0 mph6.4 kmh 29.47 in998.0 mb 0.00 in0.0 mm 0.00 in0.0 mm 0.00 in0.0 mm
02:28 AM 35.1°F1.7°C 34.0°F1.1°C 96% 3.0 mph NE4.8 kmh NE 4.0 mph6.4 kmh 29.47 in998.0 mb 0.00 in0.0 mm 0.00 in0.0 mm 0.00 in0.0 mm
02:27 AM 35.1°F1.7°C 34.0°F1.1°C 96% 2.0 mph NE3.2 kmh NE 4.0 mph6.4 kmh 29.47 in998.0 mb 0.00 in0.0 mm 0.00 in0.0 mm 0.00 in0.0 mm
02:26 AM 35.0°F1.7°C 34.0°F1.1°C 96% 2.0 mph NE3.2 kmh NE 5.0 mph8.0 kmh 29.47 in998.0 mb 0.00 in0.0 mm 0.00 in0.0 mm 0.00 in0.0 mm
02:25 AM 35.1°F1.7°C 34.1°F1.2°C 96% 4.0 mph NE6.4 kmh NE 5.0 mph8.0 kmh 29.47 in998.0 mb 0.00 in0.0 mm 0.00 in0.0 mm 0.00 in0.0 mm
02:24 AM 35.1°F1.7°C 34.1°F1.2°C 96% 3.0 mph NE4.8 kmh NE 4.0 mph6.4 kmh 29.47 in998.0 mb 0.00 in0.0 mm 0.00 in0.0 mm 0.00 in0.0 mm
02:23 AM 35.0°F1.7°C 34.0°F1.1°C 96% 2.0 mph NE3.2 kmh NE 3.0 mph4.8 kmh 29.47 in998.0 mb 0.00 in0.0 mm 0.00 in0.0 mm 0.00 in0.0 mm
02:22 AM 35.0°F1.7°C 34.0°F1.1°C 96% 2.0 mph NE3.2 kmh NE 3.0 mph4.8 kmh 29.47 in998.0 mb 0.00 in0.0 mm 0.00 in0.0 mm 0.00 in0.0 mm
02:21 AM 35.0°F1.7°C 34.0°F1.1°C 96% 2.0 mph ENE3.2 kmh ENE 3.0 mph4.8 kmh 29.47 in998.0 mb 0.00 in0.0 mm 0.00 in0.0 mm 0.00 in0.0 mm
02:20 AM 35.0°F1.7°C 34.0°F1.1°C 96% 1.0 mph E1.6 kmh E 2.0 mph3.2 kmh 29.47 in998.0 mb 0.00 in0.0 mm 0.00 in0.0 mm 0.00 in0.0 mm
02:19 AM 34.9°F1.6°C 33.9°F1.1°C 96% 1.0 mph E1.6 kmh E 3.0 mph4.8 kmh 29.47 in998.0 mb 0.00 in0.0 mm 0.00 in0.0 mm 0.00 in0.0 mm
02:18 AM 34.8°F1.6°C 33.8°F1.0°C 96% 2.0 mph E3.2 kmh E 3.0 mph4.8 kmh 29.47 in998.0 mb 0.00 in0.0 mm 0.00 in0.0 mm 0.00 in0.0 mm
02:17 AM 34.8°F1.6°C 33.8°F1.0°C 96% 1.0 mph E1.6 kmh E 3.0 mph4.8 kmh 29.47 in998.0 mb 0.00 in0.0 mm 0.00 in0.0 mm 0.00 in0.0 mm
02:16 AM 34.7°F1.5°C 33.7°F0.9°C 96% 1.0 mph E1.6 kmh E 3.0 mph4.8 kmh 29.47 in998.0 mb 0.00 in0.0 mm 0.00 in0.0 mm 0.00 in0.0 mm
02:15 AM 34.7°F1.5°C 33.7°F0.9°C 96% 1.0 mph E1.6 kmh E 3.0 mph4.8 kmh 29.48 in998.3 mb 0.00 in0.0 mm 0.00 in0.0 mm 0.00 in0.0 mm
02:14 AM 34.7°F1.5°C 33.6°F0.9°C 96% 2.0 mph E3.2 kmh E 3.0 mph4.8 kmh 29.48 in998.3 mb 0.00 in0.0 mm 0.00 in0.0 mm 0.00 in0.0 mm
02:13 AM 34.6°F1.4°C 33.3°F0.7°C 95% 1.0 mph E1.6 kmh E 2.0 mph3.2 kmh 29.48 in998.3 mb 0.00 in0.0 mm 0.00 in0.0 mm 0.00 in0.0 mm
02:12 AM 34.6°F1.4°C 33.3°F0.7°C 95% 2.0 mph E3.2 kmh E 3.0 mph4.8 kmh 29.47 in998.0 mb 0.00 in0.0 mm 0.00 in0.0 mm 0.00 in0.0 mm
02:11 AM 34.5°F1.4°C 33.4°F0.8°C 96% 2.0 mph ENE3.2 kmh ENE 3.0 mph4.8 kmh 29.47 in998.0 mb 0.00 in0.0 mm 0.00 in0.0 mm 0.00 in0.0 mm
02:10 AM 34.5°F1.4°C 33.5°F0.8°C 96% 1.0 mph ENE1.6 kmh ENE 2.0 mph3.2 kmh 29.47 in998.0 mb 0.00 in0.0 mm 0.00 in0.0 mm 0.00 in0.0 mm
02:09 AM 34.5°F1.4°C 33.5°F0.8°C 96% Calm Calm 1.0 mph1.6 kmh 29.47 in998.0 mb 0.00 in0.0 mm 0.00 in0.0 mm 0.00 in0.0 mm
02:08 AM 34.5°F1.4°C 33.5°F0.8°C 96% Calm Calm 1.0 mph1.6 kmh 29.48 in998.3 mb 0.00 in0.0 mm 0.00 in0.0 mm 0.00 in0.0 mm
02:07 AM 34.5°F1.4°C 33.5°F0.8°C 96% Calm Calm 2.0 mph3.2 kmh 29.47 in998.0 mb 0.00 in0.0 mm 0.00 in0.0 mm 0.00 in0.0 mm
02:06 AM 34.5°F1.4°C 33.5°F0.8°C 96% Calm Calm 2.0 mph3.2 kmh 29.47 in998.0 mb 0.00 in0.0 mm 0.00 in0.0 mm 0.00 in0.0 mm
02:05 AM 34.5°F1.4°C 33.5°F0.8°C 96% 1.0 mph ENE1.6 kmh ENE 3.0 mph4.8 kmh 29.47 in998.0 mb 0.00 in0.0 mm 0.00 in0.0 mm 0.00 in0.0 mm
02:04 AM 34.5°F1.4°C 33.5°F0.8°C 96% 2.0 mph ENE3.2 kmh ENE 3.0 mph4.8 kmh 29.47 in998.0 mb 0.00 in0.0 mm 0.00 in0.0 mm 0.00 in0.0 mm
02:03 AM 34.5°F1.4°C 33.5°F0.8°C 96% 1.0 mph NE1.6 kmh NE 3.0 mph4.8 kmh 29.47 in998.0 mb 0.00 in0.0 mm 0.00 in0.0 mm 0.00 in0.0 mm
02:02 AM 34.5°F1.4°C 33.5°F0.8°C 96% 3.0 mph NE4.8 kmh NE 3.0 mph4.8 kmh 29.47 in998.0 mb 0.00 in0.0 mm 0.00 in0.0 mm 0.00 in0.0 mm
02:01 AM 34.5°F1.4°C 33.5°F0.8°C 96% 2.0 mph NE3.2 kmh NE 3.0 mph4.8 kmh 29.47 in998.0 mb 0.00 in0.0 mm 0.00 in0.0 mm 0.00 in0.0 mm
02:00 AM 34.5°F1.4°C 33.5°F0.8°C 96% 2.0 mph NE3.2 kmh NE 4.0 mph6.4 kmh 29.47 in998.0 mb 0.00 in0.0 mm 0.00 in0.0 mm 0.00 in0.0 mm
01:59 AM 34.5°F1.4°C 33.5°F0.8°C 96% 3.0 mph NE4.8 kmh NE 4.0 mph6.4 kmh 29.47 in998.0 mb 0.00 in0.0 mm 0.00 in0.0 mm 0.00 in0.0 mm
01:58 AM 34.5°F1.4°C 33.5°F0.8°C 96% 2.0 mph ENE3.2 kmh ENE 3.0 mph4.8 kmh 29.47 in998.0 mb 0.00 in0.0 mm 0.00 in0.0 mm 0.00 in0.0 mm
01:57 AM 34.5°F1.4°C 33.5°F0.8°C 96% 2.0 mph ENE3.2 kmh ENE 4.0 mph6.4 kmh 29.47 in998.0 mb 0.00 in0.0 mm 0.00 in0.0 mm 0.00 in0.0 mm
01:56 AM 34.5°F1.4°C 33.5°F0.8°C 96% 3.0 mph ENE4.8 kmh ENE 5.0 mph8.0 kmh 29.47 in998.0 mb 0.00 in0.0 mm 0.00 in0.0 mm 0.00 in0.0 mm
01:55 AM 34.5°F1.4°C 33.5°F0.8°C 96% 4.0 mph E6.4 kmh E 7.0 mph11.3 kmh 29.47 in998.0 mb 0.00 in0.0 mm 0.00 in0.0 mm 0.00 in0.0 mm
01:54 AM 34.5°F1.4°C 33.5°F0.8°C 96% 4.0 mph E6.4 kmh E 7.0 mph11.3 kmh 29.47 in998.0 mb 0.00 in0.0 mm 0.00 in0.0 mm 0.00 in0.0 mm
01:53 AM 34.5°F1.4°C 33.5°F0.8°C 96% 3.0 mph E4.8 kmh E 3.0 mph4.8 kmh 29.48 in998.3 mb 0.00 in0.0 mm 0.00 in0.0 mm 0.00 in0.0 mm
01:52 AM 34.4°F1.3°C 33.4°F0.8°C 96% 2.0 mph ENE3.2 kmh ENE 3.0 mph4.8 kmh 29.48 in998.3 mb 0.00 in0.0 mm 0.00 in0.0 mm 0.00 in0.0 mm
01:51 AM 34.4°F1.3°C 33.3°F0.7°C 96% 1.0 mph E1.6 kmh E 5.0 mph8.0 kmh 29.48 in998.3 mb 0.00 in0.0 mm 0.00 in0.0 mm 0.00 in0.0 mm
01:50 AM 34.3°F1.3°C 33.0°F0.6°C 95% 3.0 mph E4.8 kmh E 5.0 mph8.0 kmh 29.48 in998.3 mb 0.00 in0.0 mm 0.00 in0.0 mm 0.00 in0.0 mm
01:49 AM 34.2°F1.2°C 32.9°F0.5°C 95% 3.0 mph ESE4.8 kmh ESE 4.0 mph6.4 kmh 29.48 in998.3 mb 0.00 in0.0 mm 0.00 in0.0 mm 0.00 in0.0 mm
01:48 AM 34.2°F1.2°C 32.9°F0.5°C 95% 2.0 mph E3.2 kmh E 6.0 mph9.7 kmh 29.48 in998.3 mb 0.00 in0.0 mm 0.00 in0.0 mm 0.00 in0.0 mm
01:47 AM 34.2°F1.2°C 32.9°F0.5°C 95% 3.0 mph E4.8 kmh E 6.0 mph9.7 kmh 29.48 in998.3 mb 0.00 in0.0 mm 0.00 in0.0 mm 0.00 in0.0 mm
01:46 AM 34.2°F1.2°C 32.9°F0.5°C 95% 4.0 mph E6.4 kmh E 6.0 mph9.7 kmh 29.48 in998.3 mb 0.00 in0.0 mm 0.00 in0.0 mm 0.00 in0.0 mm
01:45 AM 34.2°F1.2°C 32.9°F0.5°C 95% 1.0 mph NE1.6 kmh NE 4.0 mph6.4 kmh 29.48 in998.3 mb 0.00 in0.0 mm 0.00 in0.0 mm 0.00 in0.0 mm
01:44 AM 34.2°F1.2°C 32.9°F0.5°C 95% 3.0 mph NE4.8 kmh NE 5.0 mph8.0 kmh 29.48 in998.3 mb 0.00 in0.0 mm 0.00 in0.0 mm 0.00 in0.0 mm
01:43 AM 34.2°F1.2°C 32.9°F0.5°C 95% 4.0 mph E6.4 kmh E 7.0 mph11.3 kmh 29.48 in998.3 mb 0.00 in0.0 mm 0.00 in0.0 mm 0.00 in0.0 mm
01:42 AM 34.2°F1.2°C 32.9°F0.5°C 95% 4.0 mph E6.4 kmh E 7.0 mph11.3 kmh 29.48 in998.3 mb 0.00 in0.0 mm 0.00 in0.0 mm 0.00 in0.0 mm
01:41 AM 34.2°F1.2°C 32.9°F0.5°C 95% 2.0 mph NE3.2 kmh NE 4.0 mph6.4 kmh 29.48 in998.3 mb 0.00 in0.0 mm 0.00 in0.0 mm 0.00 in0.0 mm
01:40 AM 34.2°F1.2°C 32.9°F0.5°C 95% 1.0 mph ENE1.6 kmh ENE 3.0 mph4.8 kmh 29.48 in998.3 mb 0.00 in0.0 mm 0.00 in0.0 mm 0.00 in0.0 mm
01:39 AM 34.2°F1.2°C 32.9°F0.5°C 95% 2.0 mph NE3.2 kmh NE 3.0 mph4.8 kmh 29.48 in998.3 mb 0.00 in0.0 mm 0.00 in0.0 mm 0.00 in0.0 mm
01:38 AM 34.2°F1.2°C 32.9°F0.5°C 95% 1.0 mph ENE1.6 kmh ENE 4.0 mph6.4 kmh 29.49 in998.6 mb 0.00 in0.0 mm 0.00 in0.0 mm 0.00 in0.0 mm
01:37 AM 34.1°F1.2°C 32.8°F0.4°C 95% 2.0 mph ENE3.2 kmh ENE 4.0 mph6.4 kmh 29.48 in998.3 mb 0.00 in0.0 mm 0.00 in0.0 mm 0.00 in0.0 mm
01:36 AM 34.1°F1.2°C 32.8°F0.4°C 95% 1.0 mph ENE1.6 kmh ENE 5.0 mph8.0 kmh 29.49 in998.6 mb 0.00 in0.0 mm 0.00 in0.0 mm 0.00 in0.0 mm
01:35 AM 34.1°F1.2°C 32.8°F0.4°C 95% 3.0 mph NE4.8 kmh NE 6.0 mph9.7 kmh 29.49 in998.6 mb 0.00 in0.0 mm 0.00 in0.0 mm 0.00 in0.0 mm
01:34 AM 34.1°F1.2°C 32.8°F0.4°C 95% 3.0 mph NE4.8 kmh NE 6.0 mph9.7 kmh 29.49 in998.6 mb 0.00 in0.0 mm 0.00 in0.0 mm 0.00 in0.0 mm
01:33 AM 34.0°F1.1°C 32.8°F0.4°C 95% 4.0 mph NE6.4 kmh NE 6.0 mph9.7 kmh 29.49 in998.6 mb 0.00 in0.0 mm 0.00 in0.0 mm 0.00 in0.0 mm
01:32 AM 34.0°F1.1°C 32.7°F0.4°C 95% 3.0 mph NE4.8 kmh NE 6.0 mph9.7 kmh 29.49 in998.6 mb 0.00 in0.0 mm 0.00 in0.0 mm 0.00 in0.0 mm
01:31 AM 34.0°F1.1°C 32.7°F0.4°C 95% 4.0 mph NE6.4 kmh NE 5.0 mph8.0 kmh 29.49 in998.6 mb 0.00 in0.0 mm 0.00 in0.0 mm 0.00 in0.0 mm
01:30 AM 34.0°F1.1°C 32.7°F0.4°C 95% 3.0 mph NE4.8 kmh NE 5.0 mph8.0 kmh 29.49 in998.6 mb 0.00 in0.0 mm 0.00 in0.0 mm 0.00 in0.0 mm
01:29 AM 34.0°F1.1°C 32.7°F0.4°C 95% 3.0 mph ENE4.8 kmh ENE 5.0 mph8.0 kmh 29.49 in998.6 mb 0.00 in0.0 mm 0.00 in0.0 mm 0.00 in0.0 mm
01:28 AM 34.0°F1.1°C 32.7°F0.4°C 95% 3.0 mph ENE4.8 kmh ENE 8.0 mph12.9 kmh 29.49 in998.6 mb 0.00 in0.0 mm 0.00 in0.0 mm 0.00 in0.0 mm
01:27 AM 34.0°F1.1°C 32.7°F0.4°C 95% 5.0 mph ENE8.0 kmh ENE 8.0 mph12.9 kmh 29.49 in998.6 mb 0.00 in0.0 mm 0.00 in0.0 mm 0.00 in0.0 mm
01:26 AM 34.0°F1.1°C 32.8°F0.4°C 95% 4.0 mph NE6.4 kmh NE 6.0 mph9.7 kmh 29.49 in998.6 mb 0.00 in0.0 mm 0.00 in0.0 mm 0.00 in0.0 mm
01:25 AM 34.0°F1.1°C 32.8°F0.4°C 95% 4.0 mph NE6.4 kmh NE 7.0 mph11.3 kmh 29.49 in998.6 mb 0.00 in0.0 mm 0.00 in0.0 mm 0.00 in0.0 mm
01:24 AM 34.0°F1.1°C 32.7°F0.4°C 95% 5.0 mph E8.0 kmh E 7.0 mph11.3 kmh 29.49 in998.6 mb 0.00 in0.0 mm 0.00 in0.0 mm 0.00 in0.0 mm
01:23 AM 34.0°F1.1°C 32.7°F0.4°C 95% 3.0 mph E4.8 kmh E 7.0 mph11.3 kmh 29.49 in998.6 mb 0.00 in0.0 mm 0.00 in0.0 mm 0.00 in0.0 mm
01:22 AM 34.0°F1.1°C 32.7°F0.4°C 95% 4.0 mph E6.4 kmh E 10.0 mph16.1 kmh 29.50 in999.0 mb 0.00 in0.0 mm 0.00 in0.0 mm 0.00 in0.0 mm
01:21 AM 34.0°F1.1°C 32.7°F0.4°C 95% 6.0 mph E9.7 kmh E 10.0 mph16.1 kmh 29.50 in999.0 mb 0.00 in0.0 mm 0.00 in0.0 mm 0.00 in0.0 mm
01:20 AM 33.9°F1.1°C 32.6°F0.3°C 95% 5.0 mph E8.0 kmh E 7.0 mph11.3 kmh 29.50 in999.0 mb 0.00 in0.0 mm 0.00 in0.0 mm 0.00 in0.0 mm
01:19 AM 33.9°F1.1°C 32.6°F0.3°C 95% 2.0 mph ENE3.2 kmh ENE 6.0 mph9.7 kmh 29.50 in999.0 mb 0.00 in0.0 mm 0.00 in0.0 mm 0.00 in0.0 mm
01:18 AM 33.9°F1.1°C 32.6°F0.3°C 95% 4.0 mph NE6.4 kmh NE 9.0 mph14.5 kmh 29.50 in999.0 mb 0.00 in0.0 mm 0.00 in0.0 mm 0.00 in0.0 mm
01:17 AM 34.0°F1.1°C 32.7°F0.4°C 95% 6.0 mph NE9.7 kmh NE 9.0 mph14.5 kmh 29.51 in999.3 mb 0.00 in0.0 mm 0.00 in0.0 mm 0.00 in0.0 mm
01:16 AM 34.0°F1.1°C 32.7°F0.4°C 95% 4.0 mph NE6.4 kmh NE 9.0 mph14.5 kmh 29.50 in999.0 mb 0.00 in0.0 mm 0.00 in0.0 mm 0.00 in0.0 mm
01:15 AM 34.0°F1.1°C 32.7°F0.4°C 95% 4.0 mph ENE6.4 kmh ENE 9.0 mph14.5 kmh 29.50 in999.0 mb 0.00 in0.0 mm 0.00 in0.0 mm 0.00 in0.0 mm
01:14 AM 34.0°F1.1°C 32.7°F0.4°C 95% 4.0 mph ENE6.4 kmh ENE 7.0 mph11.3 kmh 29.50 in999.0 mb 0.00 in0.0 mm 0.00 in0.0 mm 0.00 in0.0 mm
01:13 AM 34.0°F1.1°C 32.7°F0.4°C 95% 4.0 mph NE6.4 kmh NE 11.0 mph17.7 kmh 29.50 in999.0 mb 0.00 in0.0 mm 0.00 in0.0 mm 0.00 in0.0 mm
01:12 AM 34.1°F1.2°C 32.8°F0.4°C 95% 8.0 mph NE12.9 kmh NE 11.0 mph17.7 kmh 29.50 in999.0 mb 0.00 in0.0 mm 0.00 in0.0 mm 0.00 in0.0 mm
01:11 AM 34.1°F1.2°C 32.8°F0.4°C 95% 5.0 mph ENE8.0 kmh ENE 9.0 mph14.5 kmh 29.50 in999.0 mb 0.00 in0.0 mm 0.00 in0.0 mm 0.00 in0.0 mm
01:10 AM 34.1°F1.2°C 32.8°F0.4°C 95% 3.0 mph NE4.8 kmh NE 7.0 mph11.3 kmh 29.50 in999.0 mb 0.00 in0.0 mm 0.00 in0.0 mm 0.00 in0.0 mm
01:09 AM 34.1°F1.2°C 32.8°F0.4°C 95% 3.0 mph NE4.8 kmh NE 6.0 mph9.7 kmh 29.50 in999.0 mb 0.00 in0.0 mm 0.00 in0.0 mm 0.00 in0.0 mm
01:08 AM 34.1°F1.2°C 32.8°F0.4°C 95% 3.0 mph NE4.8 kmh NE 6.0 mph9.7 kmh 29.50 in999.0 mb 0.00 in0.0 mm 0.00 in0.0 mm 0.00 in0.0 mm
01:07 AM 34.1°F1.2°C 32.8°F0.4°C 95% 3.0 mph NE4.8 kmh NE 10.0 mph16.1 kmh 29.50 in999.0 mb 0.00 in0.0 mm 0.00 in0.0 mm 0.00 in0.0 mm
01:06 AM 34.1°F1.2°C 32.8°F0.4°C 95% 6.0 mph NE9.7 kmh NE 10.0 mph16.1 kmh 29.50 in999.0 mb 0.00 in0.0 mm 0.00 in0.0 mm 0.00 in0.0 mm
01:05 AM 34.1°F1.2°C 32.8°F0.4°C 95% 5.0 mph NE8.0 kmh NE 9.0 mph14.5 kmh 29.50 in999.0 mb 0.00 in0.0 mm 0.00 in0.0 mm 0.00 in0.0 mm
01:04 AM 34.1°F1.2°C 32.8°F0.4°C 95% 7.0 mph NE11.3 kmh NE 9.0 mph14.5 kmh 29.51 in999.3 mb 0.00 in0.0 mm 0.00 in0.0 mm 0.00 in0.0 mm
01:03 AM 34.1°F1.2°C 32.8°F0.4°C 95% 4.0 mph NE6.4 kmh NE 6.0 mph9.7 kmh 29.51 in999.3 mb 0.00 in0.0 mm 0.00 in0.0 mm 0.00 in0.0 mm
01:02 AM 34.1°F1.2°C 32.8°F0.4°C 95% 3.0 mph NE4.8 kmh NE 5.0 mph8.0 kmh 29.51 in999.3 mb 0.00 in0.0 mm 0.00 in0.0 mm 0.00 in0.0 mm
01:01 AM 34.1°F1.2°C 32.8°F0.4°C 95% 4.0 mph NE6.4 kmh NE 5.0 mph8.0 kmh 29.51 in999.3 mb 0.00 in0.0 mm 0.00 in0.0 mm 0.00 in0.0 mm
01:00 AM 34.1°F1.2°C 32.8°F0.4°C 95% 1.0 mph E1.6 kmh E 3.0 mph4.8 kmh 29.51 in999.3 mb 0.00 in0.0 mm 0.00 in0.0 mm 0.00 in0.0 mm
12:59 AM 34.1°F1.2°C 32.8°F0.4°C 95% 2.0 mph E3.2 kmh E 4.0 mph6.4 kmh 29.51 in999.3 mb 0.00 in0.0 mm 0.00 in0.0 mm 0.00 in0.0 mm
12:58 AM 34.1°F1.2°C 32.8°F0.4°C 95% 2.0 mph E3.2 kmh E 6.0 mph9.7 kmh 29.51 in999.3 mb 0.00 in0.0 mm 0.00 in0.0 mm 0.00 in0.0 mm
12:57 AM 34.1°F1.2°C 32.8°F0.4°C 95% 4.0 mph NE6.4 kmh NE 8.0 mph12.9 kmh 29.51 in999.3 mb 0.00 in0.0 mm 0.00 in0.0 mm 0.00 in0.0 mm
12:56 AM 34.1°F1.2°C 32.8°F0.4°C 95% 3.0 mph NE4.8 kmh NE 8.0 mph12.9 kmh 29.51 in999.3 mb 0.00 in0.0 mm 0.00 in0.0 mm 0.00 in0.0 mm
12:55 AM 34.1°F1.2°C 32.8°F0.4°C 95% 3.0 mph NE4.8 kmh NE 5.0 mph8.0 kmh 29.51 in999.3 mb 0.00 in0.0 mm 0.00 in0.0 mm 0.00 in0.0 mm
12:54 AM 34.1°F1.2°C 32.8°F0.4°C 95% 4.0 mph NE6.4 kmh NE 5.0 mph8.0 kmh 29.52 in999.7 mb 0.00 in0.0 mm 0.00 in0.0 mm 0.00 in0.0 mm
12:53 AM 34.0°F1.1°C 32.7°F0.4°C 95% 1.0 mph NE1.6 kmh NE 3.0 mph4.8 kmh 29.52 in999.7 mb 0.00 in0.0 mm 0.00 in0.0 mm 0.00 in0.0 mm
12:52 AM 34.0°F1.1°C 32.7°F0.4°C 95% 1.0 mph NE1.6 kmh NE 3.0 mph4.8 kmh 29.52 in999.7 mb 0.00 in0.0 mm 0.00 in0.0 mm 0.00 in0.0 mm
12:51 AM 34.0°F1.1°C 32.7°F0.4°C 95% 1.0 mph NE1.6 kmh NE 3.0 mph4.8 kmh 29.52 in999.7 mb 0.00 in0.0 mm 0.00 in0.0 mm 0.00 in0.0 mm
12:50 AM 33.9°F1.1°C 32.6°F0.3°C 95% 2.0 mph NE3.2 kmh NE 3.0 mph4.8 kmh 29.52 in999.7 mb 0.00 in0.0 mm 0.00 in0.0 mm 0.00 in0.0 mm
12:49 AM 33.9°F1.1°C 32.6°F0.3°C 95% 1.0 mph NE1.6 kmh NE 3.0 mph4.8 kmh 29.52 in999.7 mb 0.00 in0.0 mm 0.00 in0.0 mm 0.00 in0.0 mm
12:48 AM 33.9°F1.1°C 32.6°F0.3°C 95% 1.0 mph NE1.6 kmh NE 6.0 mph9.7 kmh 29.52 in999.7 mb 0.00 in0.0 mm 0.00 in0.0 mm 0.00 in0.0 mm
12:47 AM 33.9°F1.1°C 32.6°F0.3°C 95% 4.0 mph NE6.4 kmh NE 6.0 mph9.7 kmh 29.52 in999.7 mb 0.00 in0.0 mm 0.00 in0.0 mm 0.00 in0.0 mm
12:46 AM 33.9°F1.1°C 32.6°F0.3°C 95% 3.0 mph NNE4.8 kmh NNE 4.0 mph6.4 kmh 29.52 in999.7 mb 0.00 in0.0 mm 0.00 in0.0 mm 0.00 in0.0 mm
12:45 AM 33.9°F1.1°C 32.6°F0.3°C 95% 3.0 mph NE4.8 kmh NE 4.0 mph6.4 kmh 29.52 in999.7 mb 0.00 in0.0 mm 0.00 in0.0 mm 0.00 in0.0 mm
12:44 AM 33.9°F1.1°C 32.6°F0.3°C 95% 3.0 mph NE4.8 kmh NE 5.0 mph8.0 kmh 29.52 in999.7 mb 0.00 in0.0 mm 0.00 in0.0 mm 0.00 in0.0 mm
12:43 AM 33.9°F1.1°C 32.6°F0.3°C 95% 3.0 mph NE4.8 kmh NE 5.0 mph8.0 kmh 29.52 in999.7 mb 0.00 in0.0 mm 0.00 in0.0 mm 0.00 in0.0 mm
12:42 AM 33.9°F1.1°C 32.6°F0.3°C 95% 1.0 mph E1.6 kmh E 3.0 mph4.8 kmh 29.52 in999.7 mb 0.00 in0.0 mm 0.00 in0.0 mm 0.00 in0.0 mm
12:41 AM 33.8°F1.0°C 32.6°F0.3°C 95% 2.0 mph E3.2 kmh E 4.0 mph6.4 kmh 29.52 in999.7 mb 0.00 in0.0 mm 0.00 in0.0 mm 0.00 in0.0 mm
12:40 AM 33.9°F1.1°C 32.6°F0.3°C 95% 2.0 mph ENE3.2 kmh ENE 4.0 mph6.4 kmh 29.52 in999.7 mb 0.00 in0.0 mm 0.00 in0.0 mm 0.00 in0.0 mm
12:39 AM 33.9°F1.1°C 32.6°F0.3°C 95% 2.0 mph E3.2 kmh E 4.0 mph6.4 kmh 29.52 in999.7 mb 0.00 in0.0 mm 0.00 in0.0 mm 0.00 in0.0 mm
12:38 AM 33.9°F1.1°C 32.6°F0.3°C 95% 3.0 mph ENE4.8 kmh ENE 4.0 mph6.4 kmh 29.52 in999.7 mb 0.00 in0.0 mm 0.00 in0.0 mm 0.00 in0.0 mm
12:37 AM 33.9°F1.1°C 32.6°F0.3°C 95% 2.0 mph ENE3.2 kmh ENE 4.0 mph6.4 kmh 29.52 in999.7 mb 0.00 in0.0 mm 0.00 in0.0 mm 0.00 in0.0 mm
12:36 AM 33.8°F1.0°C 32.5°F0.3°C 95% 2.0 mph NE3.2 kmh NE 4.0 mph6.4 kmh 29.52 in999.7 mb 0.00 in0.0 mm 0.00 in0.0 mm 0.00 in0.0 mm
12:35 AM 33.8°F1.0°C 32.5°F0.3°C 95% 1.0 mph NE1.6 kmh NE 3.0 mph4.8 kmh 29.52 in999.7 mb 0.00 in0.0 mm 0.00 in0.0 mm 0.00 in0.0 mm
12:34 AM 33.8°F1.0°C 32.5°F0.3°C 95% 1.0 mph NE1.6 kmh NE 3.0 mph4.8 kmh 29.53 in1000.0 mb 0.00 in0.0 mm 0.00 in0.0 mm 0.00 in0.0 mm
12:33 AM 33.8°F1.0°C 32.5°F0.3°C 95% 3.0 mph E4.8 kmh E 4.0 mph6.4 kmh 29.53 in1000.0 mb 0.00 in0.0 mm 0.00 in0.0 mm 0.00 in0.0 mm
12:32 AM 33.7°F0.9°C 32.5°F0.3°C 95% 2.0 mph E3.2 kmh E 4.0 mph6.4 kmh 29.52 in999.7 mb 0.00 in0.0 mm 0.00 in0.0 mm 0.00 in0.0 mm
12:31 AM 33.7°F0.9°C 32.4°F0.2°C 95% 1.0 mph NE1.6 kmh NE 4.0 mph6.4 kmh 29.52 in999.7 mb 0.00 in0.0 mm 0.00 in0.0 mm 0.00 in0.0 mm
12:30 AM 33.7°F0.9°C 32.5°F0.3°C 95% 2.0 mph ENE3.2 kmh ENE 6.0 mph9.7 kmh 29.52 in999.7 mb 0.00 in0.0 mm 0.00 in0.0 mm 0.00 in0.0 mm
12:29 AM 33.7°F0.9°C 32.4°F0.2°C 95% 4.0 mph E6.4 kmh E 6.0 mph9.7 kmh 29.52 in999.7 mb 0.00 in0.0 mm 0.00 in0.0 mm 0.00 in0.0 mm
12:28 AM 33.7°F0.9°C 32.4°F0.2°C 95% 1.0 mph E1.6 kmh E 4.0 mph6.4 kmh 29.52 in999.7 mb 0.00 in0.0 mm 0.00 in0.0 mm 0.00 in0.0 mm
12:27 AM 33.6°F0.9°C 32.3°F0.2°C 95% 1.0 mph E1.6 kmh E 4.0 mph6.4 kmh 29.52 in999.7 mb 0.00 in0.0 mm 0.00 in0.0 mm 0.00 in0.0 mm
12:26 AM 33.6°F0.9°C 32.3°F0.2°C 95% 3.0 mph E4.8 kmh E 4.0 mph6.4 kmh 29.52 in999.7 mb 0.00 in0.0 mm 0.00 in0.0 mm 0.00 in0.0 mm
12:25 AM 33.5°F0.8°C 32.2°F0.1°C 95% 3.0 mph E4.8 kmh E 4.0 mph6.4 kmh 29.52 in999.7 mb 0.00 in0.0 mm 0.00 in0.0 mm 0.00 in0.0 mm
12:24 AM 33.4°F0.8°C 32.1°F0.1°C 95% 1.0 mph ENE1.6 kmh ENE 2.0 mph3.2 kmh 29.53 in1000.0 mb 0.00 in0.0 mm 0.00 in0.0 mm 0.00 in0.0 mm
12:23 AM 33.3°F0.7°C 32.1°F0.1°C 95% 1.0 mph ENE1.6 kmh ENE 2.0 mph3.2 kmh 29.53 in1000.0 mb 0.00 in0.0 mm 0.00 in0.0 mm 0.00 in0.0 mm
12:22 AM 33.3°F0.7°C 32.0°F0.0°C 95% 1.0 mph ENE1.6 kmh ENE 3.0 mph4.8 kmh 29.53 in1000.0 mb 0.00 in0.0 mm 0.00 in0.0 mm 0.00 in0.0 mm
12:21 AM 33.2°F0.7°C 31.9°F-0.1°C 95% 1.0 mph ENE1.6 kmh ENE 3.0 mph4.8 kmh 29.53 in1000.0 mb 0.00 in0.0 mm 0.00 in0.0 mm 0.00 in0.0 mm
12:20 AM 33.2°F0.7°C 31.9°F-0.1°C 95% 2.0 mph ENE3.2 kmh ENE 3.0 mph4.8 kmh 29.53 in1000.0 mb 0.00 in0.0 mm 0.00 in0.0 mm 0.00 in0.0 mm
12:19 AM 33.1°F0.6°C 31.8°F-0.1°C 95% 2.0 mph ENE3.2 kmh ENE 2.0 mph3.2 kmh 29.53 in1000.0 mb 0.00 in0.0 mm 0.00 in0.0 mm 0.00 in0.0 mm
12:18 AM 33.0°F0.6°C 31.7°F-0.2°C 95% 2.0 mph ENE3.2 kmh ENE 2.0 mph3.2 kmh 29.53 in1000.0 mb 0.00 in0.0 mm 0.00 in0.0 mm 0.00 in0.0 mm
12:17 AM 32.9°F0.5°C 31.6°F-0.2°C 95% 1.0 mph ENE1.6 kmh ENE 2.0 mph3.2 kmh 29.53 in1000.0 mb 0.00 in0.0 mm 0.00 in0.0 mm 0.00 in0.0 mm
12:16 AM 32.8°F0.4°C 31.6°F-0.2°C 95% 1.0 mph ENE1.6 kmh ENE 3.0 mph4.8 kmh 29.53 in1000.0 mb 0.00 in0.0 mm 0.00 in0.0 mm 0.00 in0.0 mm
12:15 AM 32.8°F0.4°C 31.5°F-0.3°C 95% 2.0 mph ENE3.2 kmh ENE 3.0 mph4.8 kmh 29.53 in1000.0 mb 0.00 in0.0 mm 0.00 in0.0 mm 0.00 in0.0 mm
12:14 AM 32.7°F0.4°C 31.4°F-0.3°C 95% 2.0 mph ENE3.2 kmh ENE 3.0 mph4.8 kmh 29.53 in1000.0 mb 0.00 in0.0 mm 0.00 in0.0 mm 0.00 in0.0 mm
12:13 AM 32.6°F0.3°C 31.3°F-0.4°C 95% 2.0 mph ENE3.2 kmh ENE 5.0 mph8.0 kmh 29.53 in1000.0 mb 0.00 in0.0 mm 0.00 in0.0 mm 0.00 in0.0 mm
12:12 AM 32.5°F0.3°C 31.3°F-0.4°C 95% 3.0 mph ENE4.8 kmh ENE 5.0 mph8.0 kmh 29.54 in1000.3 mb 0.00 in0.0 mm 0.00 in0.0 mm 0.00 in0.0 mm
12:11 AM 32.5°F0.3°C 31.2°F-0.4°C 95% 3.0 mph ENE4.8 kmh ENE 4.0 mph6.4 kmh 29.54 in1000.3 mb 0.00 in0.0 mm 0.00 in0.0 mm 0.00 in0.0 mm
12:10 AM 32.4°F0.2°C 30.9°F-0.6°C 94% 2.0 mph ENE3.2 kmh ENE 4.0 mph6.4 kmh 29.54 in1000.3 mb 0.00 in0.0 mm 0.00 in0.0 mm 0.00 in0.0 mm
12:09 AM 32.4°F0.2°C 30.9°F-0.6°C 94% Calm Calm 3.0 mph4.8 kmh 29.54 in1000.3 mb 0.00 in0.0 mm 0.00 in0.0 mm 0.00 in0.0 mm
12:08 AM 32.4°F0.2°C 30.9°F-0.6°C 94% Calm Calm 2.0 mph3.2 kmh 29.54 in1000.3 mb 0.00 in0.0 mm 0.00 in0.0 mm 0.00 in0.0 mm
12:07 AM 32.4°F0.2°C 30.9°F-0.6°C 94% 2.0 mph ENE3.2 kmh ENE 4.0 mph6.4 kmh 29.54 in1000.3 mb 0.00 in0.0 mm 0.00 in0.0 mm 0.00 in0.0 mm
12:06 AM 32.3°F0.2°C 30.8°F-0.7°C 94% 3.0 mph ENE4.8 kmh ENE 4.0 mph6.4 kmh 29.53 in1000.0 mb 0.00 in0.0 mm 0.00 in0.0 mm 0.00 in0.0 mm
12:05 AM 32.3°F0.2°C 30.8°F-0.7°C 94% 2.0 mph ENE3.2 kmh ENE 4.0 mph6.4 kmh 29.53 in1000.0 mb 0.00 in0.0 mm 0.00 in0.0 mm 0.00 in0.0 mm
12:04 AM 32.3°F0.2°C 30.8°F-0.7°C 94% Calm Calm 4.0 mph6.4 kmh 29.53 in1000.0 mb 0.00 in0.0 mm 0.00 in0.0 mm 0.00 in0.0 mm
12:03 AM 32.3°F0.2°C 30.8°F-0.7°C 94% 2.0 mph ENE3.2 kmh ENE 5.0 mph8.0 kmh 29.53 in1000.0 mb 0.00 in0.0 mm 0.00 in0.0 mm 0.00 in0.0 mm
12:02 AM 32.3°F0.2°C 30.8°F-0.7°C 94% 3.0 mph ENE4.8 kmh ENE 7.0 mph11.3 kmh 29.53 in1000.0 mb 0.00 in0.0 mm 0.00 in0.0 mm 0.00 in0.0 mm
12:01 AM 32.3°F0.2°C 30.8°F-0.7°C 94% 5.0 mph NE8.0 kmh NE 7.0 mph11.3 kmh 29.53 in1000.0 mb 0.00 in0.0 mm 0.00 in0.0 mm 0.00 in0.0 mm
12:00 AM 32.3°F0.2°C 30.8°F-0.7°C 94% 3.0 mph NE4.8 kmh NE 8.0 mph12.9 kmh 29.53 in1000.0 mb 0.00 in0.0 mm 0.00 in0.0 mm 0.02 in0.5 mm